<?xml version="1.0" encoding="UTF-8"?>
<gpx xmlns:xsi="http://www.w3.org/2001/XMLSchema-instance" xsi:schemaLocation="http://www.topografix.com/GPX/1/1 http://www.topografix.com/GPX/1/1/gpx.xsd" creator="StravaGPX" version="1.1" xmlns="http://www.topografix.com/GPX/1/1">
 <metadata>
  <time>2025-08-29T12:19:23Z</time>
 </metadata>
 <trk>
  <name>Sutton via the hill</name>
  <type>walking</type>
  <trkseg>
   <trkpt lat="53.4510750" lon="-6.1570670">
    <ele>10.5</ele>
    <time>2025-08-29T12:19:23Z</time>
   </trkpt>
   <trkpt lat="53.4511110" lon="-6.1571240">
    <ele>10.3</ele>
    <time>2025-08-29T12:19:30Z</time>
   </trkpt>
   <trkpt lat="53.4511630" lon="-6.1572390">
    <ele>9.9</ele>
    <time>2025-08-29T12:19:36Z</time>
   </trkpt>
   <trkpt lat="53.4511440" lon="-6.1573500">
    <ele>9.6</ele>
    <time>2025-08-29T12:19:41Z</time>
   </trkpt>
   <trkpt lat="53.4510360" lon="-6.1573470">
    <ele>9.7</ele>
    <time>2025-08-29T12:19:46Z</time>
   </trkpt>
   <trkpt lat="53.4509520" lon="-6.1572960">
    <ele>10.1</ele>
    <time>2025-08-29T12:19:51Z</time>
   </trkpt>
   <trkpt lat="53.4508590" lon="-6.1573110">
    <ele>10.6</ele>
    <time>2025-08-29T12:19:57Z</time>
   </trkpt>
   <trkpt lat="53.4507680" lon="-6.1572750">
    <ele>11.1</ele>
    <time>2025-08-29T12:20:02Z</time>
   </trkpt>
   <trkpt lat="53.4507030" lon="-6.1572070">
    <ele>11.6</ele>
    <time>2025-08-29T12:20:07Z</time>
   </trkpt>
   <trkpt lat="53.4506340" lon="-6.1571660">
    <ele>11.9</ele>
    <time>2025-08-29T12:20:12Z</time>
   </trkpt>
   <trkpt lat="53.4505780" lon="-6.1570970">
    <ele>12.3</ele>
    <time>2025-08-29T12:20:18Z</time>
   </trkpt>
   <trkpt lat="53.4505170" lon="-6.1570510">
    <ele>12.5</ele>
    <time>2025-08-29T12:20:24Z</time>
   </trkpt>
   <trkpt lat="53.4504590" lon="-6.1570040">
    <ele>12.7</ele>
    <time>2025-08-29T12:20:29Z</time>
   </trkpt>
   <trkpt lat="53.4504000" lon="-6.1570080">
    <ele>13.0</ele>
    <time>2025-08-29T12:20:34Z</time>
   </trkpt>
   <trkpt lat="53.4503530" lon="-6.1569850">
    <ele>13.2</ele>
    <time>2025-08-29T12:20:51Z</time>
   </trkpt>
   <trkpt lat="53.4503190" lon="-6.1570380">
    <ele>13.3</ele>
    <time>2025-08-29T12:21:02Z</time>
   </trkpt>
   <trkpt lat="53.4502770" lon="-6.1569970">
    <ele>13.4</ele>
    <time>2025-08-29T12:21:12Z</time>
   </trkpt>
   <trkpt lat="53.4502270" lon="-6.1568850">
    <ele>13.5</ele>
    <time>2025-08-29T12:21:17Z</time>
   </trkpt>
   <trkpt lat="53.4501360" lon="-6.1569570">
    <ele>13.6</ele>
    <time>2025-08-29T12:21:23Z</time>
   </trkpt>
   <trkpt lat="53.4500580" lon="-6.1570010">
    <ele>13.7</ele>
    <time>2025-08-29T12:21:28Z</time>
   </trkpt>
   <trkpt lat="53.4499840" lon="-6.1570290">
    <ele>13.9</ele>
    <time>2025-08-29T12:21:34Z</time>
   </trkpt>
   <trkpt lat="53.4499110" lon="-6.1570180">
    <ele>14.0</ele>
    <time>2025-08-29T12:21:39Z</time>
   </trkpt>
   <trkpt lat="53.4498350" lon="-6.1570170">
    <ele>14.1</ele>
    <time>2025-08-29T12:21:44Z</time>
   </trkpt>
   <trkpt lat="53.4497520" lon="-6.1570330">
    <ele>14.1</ele>
    <time>2025-08-29T12:21:50Z</time>
   </trkpt>
   <trkpt lat="53.4496690" lon="-6.1570340">
    <ele>14.2</ele>
    <time>2025-08-29T12:21:55Z</time>
   </trkpt>
   <trkpt lat="53.4496210" lon="-6.1571290">
    <ele>14.3</ele>
    <time>2025-08-29T12:22:01Z</time>
   </trkpt>
   <trkpt lat="53.4496150" lon="-6.1572450">
    <ele>14.3</ele>
    <time>2025-08-29T12:22:06Z</time>
   </trkpt>
   <trkpt lat="53.4496150" lon="-6.1573730">
    <ele>14.4</ele>
    <time>2025-08-29T12:22:11Z</time>
   </trkpt>
   <trkpt lat="53.4496310" lon="-6.1575180">
    <ele>14.5</ele>
    <time>2025-08-29T12:22:17Z</time>
   </trkpt>
   <trkpt lat="53.4496340" lon="-6.1576650">
    <ele>14.6</ele>
    <time>2025-08-29T12:22:22Z</time>
   </trkpt>
   <trkpt lat="53.4496400" lon="-6.1578010">
    <ele>14.8</ele>
    <time>2025-08-29T12:22:28Z</time>
   </trkpt>
   <trkpt lat="53.4496410" lon="-6.1579400">
    <ele>14.9</ele>
    <time>2025-08-29T12:22:33Z</time>
   </trkpt>
   <trkpt lat="53.4495950" lon="-6.1580260">
    <ele>15.1</ele>
    <time>2025-08-29T12:22:39Z</time>
   </trkpt>
   <trkpt lat="53.4495290" lon="-6.1581090">
    <ele>15.3</ele>
    <time>2025-08-29T12:22:44Z</time>
   </trkpt>
   <trkpt lat="53.4494800" lon="-6.1582120">
    <ele>15.5</ele>
    <time>2025-08-29T12:22:50Z</time>
   </trkpt>
   <trkpt lat="53.4493940" lon="-6.1582450">
    <ele>15.9</ele>
    <time>2025-08-29T12:22:56Z</time>
   </trkpt>
   <trkpt lat="53.4493160" lon="-6.1582300">
    <ele>16.1</ele>
    <time>2025-08-29T12:23:01Z</time>
   </trkpt>
   <trkpt lat="53.4492330" lon="-6.1582490">
    <ele>16.4</ele>
    <time>2025-08-29T12:23:07Z</time>
   </trkpt>
   <trkpt lat="53.4491680" lon="-6.1582670">
    <ele>16.6</ele>
    <time>2025-08-29T12:23:12Z</time>
   </trkpt>
   <trkpt lat="53.4490870" lon="-6.1582540">
    <ele>16.9</ele>
    <time>2025-08-29T12:23:18Z</time>
   </trkpt>
   <trkpt lat="53.4490050" lon="-6.1582790">
    <ele>17.0</ele>
    <time>2025-08-29T12:23:23Z</time>
   </trkpt>
   <trkpt lat="53.4489220" lon="-6.1582900">
    <ele>17.4</ele>
    <time>2025-08-29T12:23:29Z</time>
   </trkpt>
   <trkpt lat="53.4488400" lon="-6.1582930">
    <ele>17.5</ele>
    <time>2025-08-29T12:23:34Z</time>
   </trkpt>
   <trkpt lat="53.4487610" lon="-6.1583060">
    <ele>17.8</ele>
    <time>2025-08-29T12:23:40Z</time>
   </trkpt>
   <trkpt lat="53.4486870" lon="-6.1582990">
    <ele>18.0</ele>
    <time>2025-08-29T12:23:45Z</time>
   </trkpt>
   <trkpt lat="53.4486110" lon="-6.1583320">
    <ele>18.2</ele>
    <time>2025-08-29T12:23:51Z</time>
   </trkpt>
   <trkpt lat="53.4485330" lon="-6.1583260">
    <ele>18.4</ele>
    <time>2025-08-29T12:23:56Z</time>
   </trkpt>
   <trkpt lat="53.4484440" lon="-6.1583400">
    <ele>18.6</ele>
    <time>2025-08-29T12:24:02Z</time>
   </trkpt>
   <trkpt lat="53.4483700" lon="-6.1583550">
    <ele>18.8</ele>
    <time>2025-08-29T12:24:08Z</time>
   </trkpt>
   <trkpt lat="53.4483050" lon="-6.1583890">
    <ele>18.9</ele>
    <time>2025-08-29T12:24:13Z</time>
   </trkpt>
   <trkpt lat="53.4482210" lon="-6.1584030">
    <ele>19.1</ele>
    <time>2025-08-29T12:24:19Z</time>
   </trkpt>
   <trkpt lat="53.4481450" lon="-6.1584110">
    <ele>19.2</ele>
    <time>2025-08-29T12:24:24Z</time>
   </trkpt>
   <trkpt lat="53.4480570" lon="-6.1584140">
    <ele>19.4</ele>
    <time>2025-08-29T12:24:30Z</time>
   </trkpt>
   <trkpt lat="53.4479920" lon="-6.1584190">
    <ele>19.5</ele>
    <time>2025-08-29T12:24:35Z</time>
   </trkpt>
   <trkpt lat="53.4479190" lon="-6.1584090">
    <ele>19.6</ele>
    <time>2025-08-29T12:24:40Z</time>
   </trkpt>
   <trkpt lat="53.4478420" lon="-6.1584160">
    <ele>19.7</ele>
    <time>2025-08-29T12:24:46Z</time>
   </trkpt>
   <trkpt lat="53.4477720" lon="-6.1584230">
    <ele>19.8</ele>
    <time>2025-08-29T12:24:51Z</time>
   </trkpt>
   <trkpt lat="53.4476940" lon="-6.1584240">
    <ele>19.8</ele>
    <time>2025-08-29T12:24:56Z</time>
   </trkpt>
   <trkpt lat="53.4476160" lon="-6.1584300">
    <ele>19.9</ele>
    <time>2025-08-29T12:25:02Z</time>
   </trkpt>
   <trkpt lat="53.4475350" lon="-6.1584510">
    <ele>20.0</ele>
    <time>2025-08-29T12:25:07Z</time>
   </trkpt>
   <trkpt lat="53.4474610" lon="-6.1584470">
    <ele>20.1</ele>
    <time>2025-08-29T12:25:13Z</time>
   </trkpt>
   <trkpt lat="53.4473790" lon="-6.1584580">
    <ele>20.1</ele>
    <time>2025-08-29T12:25:18Z</time>
   </trkpt>
   <trkpt lat="53.4473060" lon="-6.1584520">
    <ele>20.2</ele>
    <time>2025-08-29T12:25:24Z</time>
   </trkpt>
   <trkpt lat="53.4472360" lon="-6.1584390">
    <ele>20.2</ele>
    <time>2025-08-29T12:25:29Z</time>
   </trkpt>
   <trkpt lat="53.4471630" lon="-6.1583930">
    <ele>20.2</ele>
    <time>2025-08-29T12:25:35Z</time>
   </trkpt>
   <trkpt lat="53.4470920" lon="-6.1583530">
    <ele>20.2</ele>
    <time>2025-08-29T12:25:40Z</time>
   </trkpt>
   <trkpt lat="53.4470360" lon="-6.1582820">
    <ele>20.1</ele>
    <time>2025-08-29T12:25:45Z</time>
   </trkpt>
   <trkpt lat="53.4469730" lon="-6.1582610">
    <ele>20.1</ele>
    <time>2025-08-29T12:26:01Z</time>
   </trkpt>
   <trkpt lat="53.4468880" lon="-6.1581970">
    <ele>20.0</ele>
    <time>2025-08-29T12:26:06Z</time>
   </trkpt>
   <trkpt lat="53.4468170" lon="-6.1581850">
    <ele>20.0</ele>
    <time>2025-08-29T12:26:11Z</time>
   </trkpt>
   <trkpt lat="53.4467440" lon="-6.1581690">
    <ele>20.1</ele>
    <time>2025-08-29T12:26:17Z</time>
   </trkpt>
   <trkpt lat="53.4466730" lon="-6.1581490">
    <ele>20.2</ele>
    <time>2025-08-29T12:26:22Z</time>
   </trkpt>
   <trkpt lat="53.4466070" lon="-6.1581160">
    <ele>20.4</ele>
    <time>2025-08-29T12:26:27Z</time>
   </trkpt>
   <trkpt lat="53.4465610" lon="-6.1580910">
    <ele>20.5</ele>
    <time>2025-08-29T12:26:46Z</time>
   </trkpt>
   <trkpt lat="53.4464790" lon="-6.1580800">
    <ele>20.8</ele>
    <time>2025-08-29T12:26:51Z</time>
   </trkpt>
   <trkpt lat="53.4464070" lon="-6.1581110">
    <ele>21.3</ele>
    <time>2025-08-29T12:26:57Z</time>
   </trkpt>
   <trkpt lat="53.4463500" lon="-6.1581120">
    <ele>21.8</ele>
    <time>2025-08-29T12:27:02Z</time>
   </trkpt>
   <trkpt lat="53.4462750" lon="-6.1580970">
    <ele>22.2</ele>
    <time>2025-08-29T12:27:07Z</time>
   </trkpt>
   <trkpt lat="53.4461830" lon="-6.1581000">
    <ele>22.9</ele>
    <time>2025-08-29T12:27:13Z</time>
   </trkpt>
   <trkpt lat="53.4461020" lon="-6.1580730">
    <ele>23.3</ele>
    <time>2025-08-29T12:27:18Z</time>
   </trkpt>
   <trkpt lat="53.4460230" lon="-6.1580510">
    <ele>23.9</ele>
    <time>2025-08-29T12:27:24Z</time>
   </trkpt>
   <trkpt lat="53.4459570" lon="-6.1580270">
    <ele>24.2</ele>
    <time>2025-08-29T12:27:29Z</time>
   </trkpt>
   <trkpt lat="53.4458840" lon="-6.1580600">
    <ele>24.7</ele>
    <time>2025-08-29T12:27:34Z</time>
   </trkpt>
   <trkpt lat="53.4458000" lon="-6.1580430">
    <ele>25.2</ele>
    <time>2025-08-29T12:27:40Z</time>
   </trkpt>
   <trkpt lat="53.4457270" lon="-6.1579970">
    <ele>25.4</ele>
    <time>2025-08-29T12:27:45Z</time>
   </trkpt>
   <trkpt lat="53.4456490" lon="-6.1579820">
    <ele>25.6</ele>
    <time>2025-08-29T12:27:51Z</time>
   </trkpt>
   <trkpt lat="53.4455750" lon="-6.1579750">
    <ele>26.0</ele>
    <time>2025-08-29T12:27:56Z</time>
   </trkpt>
   <trkpt lat="53.4454980" lon="-6.1579440">
    <ele>26.1</ele>
    <time>2025-08-29T12:28:02Z</time>
   </trkpt>
   <trkpt lat="53.4454500" lon="-6.1579400">
    <ele>26.3</ele>
    <time>2025-08-29T12:28:07Z</time>
   </trkpt>
   <trkpt lat="53.4453890" lon="-6.1579410">
    <ele>26.5</ele>
    <time>2025-08-29T12:28:12Z</time>
   </trkpt>
   <trkpt lat="53.4453430" lon="-6.1579450">
    <ele>26.9</ele>
    <time>2025-08-29T12:28:23Z</time>
   </trkpt>
   <trkpt lat="53.4452850" lon="-6.1579410">
    <ele>27.1</ele>
    <time>2025-08-29T12:28:30Z</time>
   </trkpt>
   <trkpt lat="53.4451910" lon="-6.1578950">
    <ele>27.2</ele>
    <time>2025-08-29T12:28:35Z</time>
   </trkpt>
   <trkpt lat="53.4451140" lon="-6.1578780">
    <ele>27.1</ele>
    <time>2025-08-29T12:28:41Z</time>
   </trkpt>
   <trkpt lat="53.4450390" lon="-6.1578700">
    <ele>27.2</ele>
    <time>2025-08-29T12:28:46Z</time>
   </trkpt>
   <trkpt lat="53.4449630" lon="-6.1578540">
    <ele>27.3</ele>
    <time>2025-08-29T12:28:52Z</time>
   </trkpt>
   <trkpt lat="53.4448900" lon="-6.1578290">
    <ele>27.2</ele>
    <time>2025-08-29T12:28:57Z</time>
   </trkpt>
   <trkpt lat="53.4447990" lon="-6.1577670">
    <ele>26.9</ele>
    <time>2025-08-29T12:29:02Z</time>
   </trkpt>
   <trkpt lat="53.4447000" lon="-6.1577260">
    <ele>26.6</ele>
    <time>2025-08-29T12:29:08Z</time>
   </trkpt>
   <trkpt lat="53.4446300" lon="-6.1577210">
    <ele>26.5</ele>
    <time>2025-08-29T12:29:13Z</time>
   </trkpt>
   <trkpt lat="53.4445460" lon="-6.1577380">
    <ele>26.6</ele>
    <time>2025-08-29T12:29:19Z</time>
   </trkpt>
   <trkpt lat="53.4444720" lon="-6.1577450">
    <ele>26.7</ele>
    <time>2025-08-29T12:29:24Z</time>
   </trkpt>
   <trkpt lat="53.4443950" lon="-6.1577550">
    <ele>27.0</ele>
    <time>2025-08-29T12:29:30Z</time>
   </trkpt>
   <trkpt lat="53.4443370" lon="-6.1578180">
    <ele>27.2</ele>
    <time>2025-08-29T12:29:35Z</time>
   </trkpt>
   <trkpt lat="53.4442540" lon="-6.1579020">
    <ele>27.8</ele>
    <time>2025-08-29T12:29:40Z</time>
   </trkpt>
   <trkpt lat="53.4441610" lon="-6.1580050">
    <ele>28.4</ele>
    <time>2025-08-29T12:29:46Z</time>
   </trkpt>
   <trkpt lat="53.4440950" lon="-6.1580190">
    <ele>28.5</ele>
    <time>2025-08-29T12:29:52Z</time>
   </trkpt>
   <trkpt lat="53.4440290" lon="-6.1580170">
    <ele>28.5</ele>
    <time>2025-08-29T12:29:57Z</time>
   </trkpt>
   <trkpt lat="53.4439520" lon="-6.1579940">
    <ele>28.4</ele>
    <time>2025-08-29T12:30:02Z</time>
   </trkpt>
   <trkpt lat="53.4438810" lon="-6.1579350">
    <ele>28.0</ele>
    <time>2025-08-29T12:30:08Z</time>
   </trkpt>
   <trkpt lat="53.4438090" lon="-6.1578970">
    <ele>27.6</ele>
    <time>2025-08-29T12:30:13Z</time>
   </trkpt>
   <trkpt lat="53.4437330" lon="-6.1578800">
    <ele>27.3</ele>
    <time>2025-08-29T12:30:19Z</time>
   </trkpt>
   <trkpt lat="53.4436710" lon="-6.1578440">
    <ele>27.0</ele>
    <time>2025-08-29T12:30:24Z</time>
   </trkpt>
   <trkpt lat="53.4436000" lon="-6.1577760">
    <ele>26.6</ele>
    <time>2025-08-29T12:30:30Z</time>
   </trkpt>
   <trkpt lat="53.4435270" lon="-6.1577420">
    <ele>26.3</ele>
    <time>2025-08-29T12:30:35Z</time>
   </trkpt>
   <trkpt lat="53.4434430" lon="-6.1577380">
    <ele>25.9</ele>
    <time>2025-08-29T12:30:41Z</time>
   </trkpt>
   <trkpt lat="53.4433470" lon="-6.1577050">
    <ele>25.7</ele>
    <time>2025-08-29T12:30:46Z</time>
   </trkpt>
   <trkpt lat="53.4432390" lon="-6.1577240">
    <ele>25.3</ele>
    <time>2025-08-29T12:30:52Z</time>
   </trkpt>
   <trkpt lat="53.4431910" lon="-6.1576820">
    <ele>25.1</ele>
    <time>2025-08-29T12:30:57Z</time>
   </trkpt>
   <trkpt lat="53.4431380" lon="-6.1576410">
    <ele>24.9</ele>
    <time>2025-08-29T12:31:02Z</time>
   </trkpt>
   <trkpt lat="53.4430630" lon="-6.1576060">
    <ele>24.7</ele>
    <time>2025-08-29T12:31:08Z</time>
   </trkpt>
   <trkpt lat="53.4429860" lon="-6.1576110">
    <ele>24.5</ele>
    <time>2025-08-29T12:31:13Z</time>
   </trkpt>
   <trkpt lat="53.4429260" lon="-6.1575320">
    <ele>24.3</ele>
    <time>2025-08-29T12:31:18Z</time>
   </trkpt>
   <trkpt lat="53.4428900" lon="-6.1574450">
    <ele>24.2</ele>
    <time>2025-08-29T12:31:23Z</time>
   </trkpt>
   <trkpt lat="53.4428480" lon="-6.1573150">
    <ele>23.9</ele>
    <time>2025-08-29T12:31:29Z</time>
   </trkpt>
   <trkpt lat="53.4427680" lon="-6.1572330">
    <ele>23.6</ele>
    <time>2025-08-29T12:31:34Z</time>
   </trkpt>
   <trkpt lat="53.4427280" lon="-6.1571400">
    <ele>23.3</ele>
    <time>2025-08-29T12:31:40Z</time>
   </trkpt>
   <trkpt lat="53.4427620" lon="-6.1569970">
    <ele>22.8</ele>
    <time>2025-08-29T12:31:46Z</time>
   </trkpt>
   <trkpt lat="53.4428290" lon="-6.1569140">
    <ele>22.5</ele>
    <time>2025-08-29T12:31:51Z</time>
   </trkpt>
   <trkpt lat="53.4428850" lon="-6.1568080">
    <ele>22.3</ele>
    <time>2025-08-29T12:31:56Z</time>
   </trkpt>
   <trkpt lat="53.4429210" lon="-6.1566940">
    <ele>22.2</ele>
    <time>2025-08-29T12:32:02Z</time>
   </trkpt>
   <trkpt lat="53.4429700" lon="-6.1565660">
    <ele>22.1</ele>
    <time>2025-08-29T12:32:07Z</time>
   </trkpt>
   <trkpt lat="53.4430160" lon="-6.1564440">
    <ele>22.2</ele>
    <time>2025-08-29T12:32:13Z</time>
   </trkpt>
   <trkpt lat="53.4430150" lon="-6.1563430">
    <ele>22.3</ele>
    <time>2025-08-29T12:32:18Z</time>
   </trkpt>
   <trkpt lat="53.4429540" lon="-6.1562320">
    <ele>22.3</ele>
    <time>2025-08-29T12:32:23Z</time>
   </trkpt>
   <trkpt lat="53.4429360" lon="-6.1561130">
    <ele>22.4</ele>
    <time>2025-08-29T12:32:29Z</time>
   </trkpt>
   <trkpt lat="53.4428930" lon="-6.1559930">
    <ele>22.5</ele>
    <time>2025-08-29T12:32:34Z</time>
   </trkpt>
   <trkpt lat="53.4428260" lon="-6.1559460">
    <ele>22.5</ele>
    <time>2025-08-29T12:32:40Z</time>
   </trkpt>
   <trkpt lat="53.4427480" lon="-6.1559380">
    <ele>22.4</ele>
    <time>2025-08-29T12:32:45Z</time>
   </trkpt>
   <trkpt lat="53.4426860" lon="-6.1559040">
    <ele>22.3</ele>
    <time>2025-08-29T12:32:50Z</time>
   </trkpt>
   <trkpt lat="53.4426210" lon="-6.1558380">
    <ele>22.2</ele>
    <time>2025-08-29T12:32:56Z</time>
   </trkpt>
   <trkpt lat="53.4425530" lon="-6.1557490">
    <ele>22.2</ele>
    <time>2025-08-29T12:33:01Z</time>
   </trkpt>
   <trkpt lat="53.4424950" lon="-6.1556570">
    <ele>22.3</ele>
    <time>2025-08-29T12:33:06Z</time>
   </trkpt>
   <trkpt lat="53.4424490" lon="-6.1555450">
    <ele>22.4</ele>
    <time>2025-08-29T12:33:12Z</time>
   </trkpt>
   <trkpt lat="53.4424100" lon="-6.1553990">
    <ele>22.7</ele>
    <time>2025-08-29T12:33:17Z</time>
   </trkpt>
   <trkpt lat="53.4423700" lon="-6.1553020">
    <ele>23.0</ele>
    <time>2025-08-29T12:33:23Z</time>
   </trkpt>
   <trkpt lat="53.4423180" lon="-6.1551910">
    <ele>23.2</ele>
    <time>2025-08-29T12:33:28Z</time>
   </trkpt>
   <trkpt lat="53.4422870" lon="-6.1550820">
    <ele>23.4</ele>
    <time>2025-08-29T12:33:33Z</time>
   </trkpt>
   <trkpt lat="53.4422570" lon="-6.1549790">
    <ele>23.6</ele>
    <time>2025-08-29T12:33:39Z</time>
   </trkpt>
   <trkpt lat="53.4422140" lon="-6.1548630">
    <ele>23.7</ele>
    <time>2025-08-29T12:33:44Z</time>
   </trkpt>
   <trkpt lat="53.4421740" lon="-6.1547410">
    <ele>23.8</ele>
    <time>2025-08-29T12:33:50Z</time>
   </trkpt>
   <trkpt lat="53.4421550" lon="-6.1546280">
    <ele>23.9</ele>
    <time>2025-08-29T12:33:55Z</time>
   </trkpt>
   <trkpt lat="53.4421620" lon="-6.1544870">
    <ele>23.9</ele>
    <time>2025-08-29T12:34:00Z</time>
   </trkpt>
   <trkpt lat="53.4421790" lon="-6.1543640">
    <ele>24.0</ele>
    <time>2025-08-29T12:34:05Z</time>
   </trkpt>
   <trkpt lat="53.4421850" lon="-6.1542540">
    <ele>24.0</ele>
    <time>2025-08-29T12:34:11Z</time>
   </trkpt>
   <trkpt lat="53.4421830" lon="-6.1541080">
    <ele>24.0</ele>
    <time>2025-08-29T12:34:16Z</time>
   </trkpt>
   <trkpt lat="53.4421900" lon="-6.1539760">
    <ele>24.0</ele>
    <time>2025-08-29T12:34:22Z</time>
   </trkpt>
   <trkpt lat="53.4421600" lon="-6.1538520">
    <ele>24.0</ele>
    <time>2025-08-29T12:34:27Z</time>
   </trkpt>
   <trkpt lat="53.4421490" lon="-6.1537020">
    <ele>24.0</ele>
    <time>2025-08-29T12:34:32Z</time>
   </trkpt>
   <trkpt lat="53.4421390" lon="-6.1535610">
    <ele>24.0</ele>
    <time>2025-08-29T12:34:38Z</time>
   </trkpt>
   <trkpt lat="53.4421280" lon="-6.1534140">
    <ele>24.0</ele>
    <time>2025-08-29T12:34:43Z</time>
   </trkpt>
   <trkpt lat="53.4420910" lon="-6.1532980">
    <ele>24.0</ele>
    <time>2025-08-29T12:34:48Z</time>
   </trkpt>
   <trkpt lat="53.4420930" lon="-6.1531720">
    <ele>24.1</ele>
    <time>2025-08-29T12:34:54Z</time>
   </trkpt>
   <trkpt lat="53.4420840" lon="-6.1530370">
    <ele>24.1</ele>
    <time>2025-08-29T12:34:59Z</time>
   </trkpt>
   <trkpt lat="53.4420820" lon="-6.1529220">
    <ele>24.1</ele>
    <time>2025-08-29T12:35:04Z</time>
   </trkpt>
   <trkpt lat="53.4420790" lon="-6.1527750">
    <ele>24.2</ele>
    <time>2025-08-29T12:35:10Z</time>
   </trkpt>
   <trkpt lat="53.4420440" lon="-6.1526380">
    <ele>24.2</ele>
    <time>2025-08-29T12:35:15Z</time>
   </trkpt>
   <trkpt lat="53.4420040" lon="-6.1525140">
    <ele>24.3</ele>
    <time>2025-08-29T12:35:20Z</time>
   </trkpt>
   <trkpt lat="53.4419710" lon="-6.1523890">
    <ele>24.4</ele>
    <time>2025-08-29T12:35:25Z</time>
   </trkpt>
   <trkpt lat="53.4419600" lon="-6.1522220">
    <ele>24.5</ele>
    <time>2025-08-29T12:35:31Z</time>
   </trkpt>
   <trkpt lat="53.4419550" lon="-6.1520850">
    <ele>24.6</ele>
    <time>2025-08-29T12:35:37Z</time>
   </trkpt>
   <trkpt lat="53.4419910" lon="-6.1519620">
    <ele>24.8</ele>
    <time>2025-08-29T12:35:42Z</time>
   </trkpt>
   <trkpt lat="53.4420080" lon="-6.1518320">
    <ele>25.0</ele>
    <time>2025-08-29T12:35:47Z</time>
   </trkpt>
   <trkpt lat="53.4419830" lon="-6.1517250">
    <ele>25.2</ele>
    <time>2025-08-29T12:35:52Z</time>
   </trkpt>
   <trkpt lat="53.4419760" lon="-6.1515720">
    <ele>25.3</ele>
    <time>2025-08-29T12:35:58Z</time>
   </trkpt>
   <trkpt lat="53.4420020" lon="-6.1514440">
    <ele>25.4</ele>
    <time>2025-08-29T12:36:04Z</time>
   </trkpt>
   <trkpt lat="53.4420510" lon="-6.1514280">
    <ele>25.5</ele>
    <time>2025-08-29T12:36:10Z</time>
   </trkpt>
   <trkpt lat="53.4421440" lon="-6.1514030">
    <ele>25.6</ele>
    <time>2025-08-29T12:36:15Z</time>
   </trkpt>
   <trkpt lat="53.4421920" lon="-6.1512740">
    <ele>25.7</ele>
    <time>2025-08-29T12:36:21Z</time>
   </trkpt>
   <trkpt lat="53.4422260" lon="-6.1511250">
    <ele>25.8</ele>
    <time>2025-08-29T12:36:26Z</time>
   </trkpt>
   <trkpt lat="53.4422340" lon="-6.1510150">
    <ele>25.9</ele>
    <time>2025-08-29T12:36:32Z</time>
   </trkpt>
   <trkpt lat="53.4422080" lon="-6.1508730">
    <ele>26.0</ele>
    <time>2025-08-29T12:36:37Z</time>
   </trkpt>
   <trkpt lat="53.4422020" lon="-6.1507240">
    <ele>26.1</ele>
    <time>2025-08-29T12:36:42Z</time>
   </trkpt>
   <trkpt lat="53.4421880" lon="-6.1505970">
    <ele>26.3</ele>
    <time>2025-08-29T12:36:48Z</time>
   </trkpt>
   <trkpt lat="53.4421820" lon="-6.1504610">
    <ele>26.5</ele>
    <time>2025-08-29T12:36:53Z</time>
   </trkpt>
   <trkpt lat="53.4421860" lon="-6.1503290">
    <ele>26.7</ele>
    <time>2025-08-29T12:36:58Z</time>
   </trkpt>
   <trkpt lat="53.4421870" lon="-6.1501990">
    <ele>27.0</ele>
    <time>2025-08-29T12:37:04Z</time>
   </trkpt>
   <trkpt lat="53.4421780" lon="-6.1500480">
    <ele>27.2</ele>
    <time>2025-08-29T12:37:09Z</time>
   </trkpt>
   <trkpt lat="53.4421590" lon="-6.1499110">
    <ele>27.5</ele>
    <time>2025-08-29T12:37:15Z</time>
   </trkpt>
   <trkpt lat="53.4421370" lon="-6.1497670">
    <ele>27.8</ele>
    <time>2025-08-29T12:37:21Z</time>
   </trkpt>
   <trkpt lat="53.4421320" lon="-6.1496190">
    <ele>28.1</ele>
    <time>2025-08-29T12:37:26Z</time>
   </trkpt>
   <trkpt lat="53.4421180" lon="-6.1494990">
    <ele>28.4</ele>
    <time>2025-08-29T12:37:32Z</time>
   </trkpt>
   <trkpt lat="53.4421250" lon="-6.1493480">
    <ele>28.7</ele>
    <time>2025-08-29T12:37:37Z</time>
   </trkpt>
   <trkpt lat="53.4421170" lon="-6.1492190">
    <ele>29.0</ele>
    <time>2025-08-29T12:37:43Z</time>
   </trkpt>
   <trkpt lat="53.4421170" lon="-6.1491150">
    <ele>29.3</ele>
    <time>2025-08-29T12:37:48Z</time>
   </trkpt>
   <trkpt lat="53.4421050" lon="-6.1489770">
    <ele>29.5</ele>
    <time>2025-08-29T12:37:53Z</time>
   </trkpt>
   <trkpt lat="53.4421060" lon="-6.1488560">
    <ele>29.6</ele>
    <time>2025-08-29T12:37:59Z</time>
   </trkpt>
   <trkpt lat="53.4421000" lon="-6.1487180">
    <ele>29.7</ele>
    <time>2025-08-29T12:38:04Z</time>
   </trkpt>
   <trkpt lat="53.4420910" lon="-6.1485830">
    <ele>29.7</ele>
    <time>2025-08-29T12:38:10Z</time>
   </trkpt>
   <trkpt lat="53.4420860" lon="-6.1484450">
    <ele>29.7</ele>
    <time>2025-08-29T12:38:15Z</time>
   </trkpt>
   <trkpt lat="53.4420780" lon="-6.1483210">
    <ele>29.8</ele>
    <time>2025-08-29T12:38:21Z</time>
   </trkpt>
   <trkpt lat="53.4420620" lon="-6.1481980">
    <ele>29.9</ele>
    <time>2025-08-29T12:38:26Z</time>
   </trkpt>
   <trkpt lat="53.4420690" lon="-6.1480790">
    <ele>30.0</ele>
    <time>2025-08-29T12:38:32Z</time>
   </trkpt>
   <trkpt lat="53.4420760" lon="-6.1479370">
    <ele>30.2</ele>
    <time>2025-08-29T12:38:37Z</time>
   </trkpt>
   <trkpt lat="53.4420610" lon="-6.1477980">
    <ele>30.5</ele>
    <time>2025-08-29T12:38:43Z</time>
   </trkpt>
   <trkpt lat="53.4420390" lon="-6.1476790">
    <ele>30.7</ele>
    <time>2025-08-29T12:38:48Z</time>
   </trkpt>
   <trkpt lat="53.4420320" lon="-6.1475330">
    <ele>31.0</ele>
    <time>2025-08-29T12:38:54Z</time>
   </trkpt>
   <trkpt lat="53.4420290" lon="-6.1474050">
    <ele>31.1</ele>
    <time>2025-08-29T12:38:59Z</time>
   </trkpt>
   <trkpt lat="53.4420160" lon="-6.1472570">
    <ele>31.4</ele>
    <time>2025-08-29T12:39:04Z</time>
   </trkpt>
   <trkpt lat="53.4420230" lon="-6.1471560">
    <ele>31.6</ele>
    <time>2025-08-29T12:39:09Z</time>
   </trkpt>
   <trkpt lat="53.4420260" lon="-6.1470090">
    <ele>31.7</ele>
    <time>2025-08-29T12:39:15Z</time>
   </trkpt>
   <trkpt lat="53.4420100" lon="-6.1468710">
    <ele>31.9</ele>
    <time>2025-08-29T12:39:20Z</time>
   </trkpt>
   <trkpt lat="53.4420020" lon="-6.1467570">
    <ele>32.1</ele>
    <time>2025-08-29T12:39:26Z</time>
   </trkpt>
   <trkpt lat="53.4419860" lon="-6.1466240">
    <ele>32.3</ele>
    <time>2025-08-29T12:39:31Z</time>
   </trkpt>
   <trkpt lat="53.4419860" lon="-6.1464920">
    <ele>32.6</ele>
    <time>2025-08-29T12:39:36Z</time>
   </trkpt>
   <trkpt lat="53.4419840" lon="-6.1463770">
    <ele>32.9</ele>
    <time>2025-08-29T12:39:41Z</time>
   </trkpt>
   <trkpt lat="53.4419830" lon="-6.1462370">
    <ele>33.2</ele>
    <time>2025-08-29T12:39:46Z</time>
   </trkpt>
   <trkpt lat="53.4419730" lon="-6.1461080">
    <ele>33.7</ele>
    <time>2025-08-29T12:39:51Z</time>
   </trkpt>
   <trkpt lat="53.4419530" lon="-6.1459860">
    <ele>34.1</ele>
    <time>2025-08-29T12:39:57Z</time>
   </trkpt>
   <trkpt lat="53.4419560" lon="-6.1458330">
    <ele>34.5</ele>
    <time>2025-08-29T12:40:02Z</time>
   </trkpt>
   <trkpt lat="53.4419510" lon="-6.1457140">
    <ele>34.9</ele>
    <time>2025-08-29T12:40:07Z</time>
   </trkpt>
   <trkpt lat="53.4419300" lon="-6.1455920">
    <ele>35.3</ele>
    <time>2025-08-29T12:40:13Z</time>
   </trkpt>
   <trkpt lat="53.4419150" lon="-6.1454490">
    <ele>35.7</ele>
    <time>2025-08-29T12:40:18Z</time>
   </trkpt>
   <trkpt lat="53.4419040" lon="-6.1453340">
    <ele>36.1</ele>
    <time>2025-08-29T12:40:24Z</time>
   </trkpt>
   <trkpt lat="53.4418980" lon="-6.1451980">
    <ele>36.5</ele>
    <time>2025-08-29T12:40:29Z</time>
   </trkpt>
   <trkpt lat="53.4418930" lon="-6.1450620">
    <ele>37.0</ele>
    <time>2025-08-29T12:40:34Z</time>
   </trkpt>
   <trkpt lat="53.4418840" lon="-6.1449410">
    <ele>37.4</ele>
    <time>2025-08-29T12:40:40Z</time>
   </trkpt>
   <trkpt lat="53.4418820" lon="-6.1448230">
    <ele>37.8</ele>
    <time>2025-08-29T12:40:45Z</time>
   </trkpt>
   <trkpt lat="53.4418840" lon="-6.1447070">
    <ele>38.2</ele>
    <time>2025-08-29T12:40:51Z</time>
   </trkpt>
   <trkpt lat="53.4418820" lon="-6.1445580">
    <ele>38.5</ele>
    <time>2025-08-29T12:40:56Z</time>
   </trkpt>
   <trkpt lat="53.4418740" lon="-6.1444420">
    <ele>39.0</ele>
    <time>2025-08-29T12:41:02Z</time>
   </trkpt>
   <trkpt lat="53.4418750" lon="-6.1443060">
    <ele>39.3</ele>
    <time>2025-08-29T12:41:07Z</time>
   </trkpt>
   <trkpt lat="53.4418740" lon="-6.1441720">
    <ele>39.6</ele>
    <time>2025-08-29T12:41:13Z</time>
   </trkpt>
   <trkpt lat="53.4418480" lon="-6.1440600">
    <ele>39.8</ele>
    <time>2025-08-29T12:41:18Z</time>
   </trkpt>
   <trkpt lat="53.4418240" lon="-6.1439810">
    <ele>39.7</ele>
    <time>2025-08-29T12:41:40Z</time>
   </trkpt>
   <trkpt lat="53.4418340" lon="-6.1438170">
    <ele>39.9</ele>
    <time>2025-08-29T12:41:46Z</time>
   </trkpt>
   <trkpt lat="53.4418530" lon="-6.1436930">
    <ele>40.0</ele>
    <time>2025-08-29T12:41:51Z</time>
   </trkpt>
   <trkpt lat="53.4418410" lon="-6.1435550">
    <ele>40.2</ele>
    <time>2025-08-29T12:41:56Z</time>
   </trkpt>
   <trkpt lat="53.4418310" lon="-6.1434710">
    <ele>40.2</ele>
    <time>2025-08-29T12:42:26Z</time>
   </trkpt>
   <trkpt lat="53.4418330" lon="-6.1432800">
    <ele>40.5</ele>
    <time>2025-08-29T12:42:32Z</time>
   </trkpt>
   <trkpt lat="53.4418020" lon="-6.1431630">
    <ele>40.7</ele>
    <time>2025-08-29T12:42:37Z</time>
   </trkpt>
   <trkpt lat="53.4417990" lon="-6.1430280">
    <ele>41.0</ele>
    <time>2025-08-29T12:42:42Z</time>
   </trkpt>
   <trkpt lat="53.4418060" lon="-6.1428810">
    <ele>41.4</ele>
    <time>2025-08-29T12:42:47Z</time>
   </trkpt>
   <trkpt lat="53.4417800" lon="-6.1427560">
    <ele>41.9</ele>
    <time>2025-08-29T12:42:53Z</time>
   </trkpt>
   <trkpt lat="53.4417640" lon="-6.1426130">
    <ele>42.2</ele>
    <time>2025-08-29T12:42:58Z</time>
   </trkpt>
   <trkpt lat="53.4417660" lon="-6.1424640">
    <ele>42.7</ele>
    <time>2025-08-29T12:43:03Z</time>
   </trkpt>
   <trkpt lat="53.4417630" lon="-6.1423560">
    <ele>43.1</ele>
    <time>2025-08-29T12:43:09Z</time>
   </trkpt>
   <trkpt lat="53.4417550" lon="-6.1422080">
    <ele>43.4</ele>
    <time>2025-08-29T12:43:14Z</time>
   </trkpt>
   <trkpt lat="53.4417670" lon="-6.1420790">
    <ele>43.7</ele>
    <time>2025-08-29T12:43:19Z</time>
   </trkpt>
   <trkpt lat="53.4417860" lon="-6.1419710">
    <ele>44.0</ele>
    <time>2025-08-29T12:43:25Z</time>
   </trkpt>
   <trkpt lat="53.4417920" lon="-6.1418260">
    <ele>44.3</ele>
    <time>2025-08-29T12:43:30Z</time>
   </trkpt>
   <trkpt lat="53.4417850" lon="-6.1417050">
    <ele>44.7</ele>
    <time>2025-08-29T12:43:35Z</time>
   </trkpt>
   <trkpt lat="53.4417960" lon="-6.1415900">
    <ele>45.0</ele>
    <time>2025-08-29T12:43:41Z</time>
   </trkpt>
   <trkpt lat="53.4418130" lon="-6.1414450">
    <ele>45.5</ele>
    <time>2025-08-29T12:43:46Z</time>
   </trkpt>
   <trkpt lat="53.4417800" lon="-6.1412850">
    <ele>45.9</ele>
    <time>2025-08-29T12:43:51Z</time>
   </trkpt>
   <trkpt lat="53.4417750" lon="-6.1411690">
    <ele>46.3</ele>
    <time>2025-08-29T12:43:57Z</time>
   </trkpt>
   <trkpt lat="53.4418170" lon="-6.1410220">
    <ele>46.8</ele>
    <time>2025-08-29T12:44:02Z</time>
   </trkpt>
   <trkpt lat="53.4418520" lon="-6.1409220">
    <ele>47.3</ele>
    <time>2025-08-29T12:44:08Z</time>
   </trkpt>
   <trkpt lat="53.4418890" lon="-6.1408320">
    <ele>47.7</ele>
    <time>2025-08-29T12:44:13Z</time>
   </trkpt>
   <trkpt lat="53.4419070" lon="-6.1406890">
    <ele>48.0</ele>
    <time>2025-08-29T12:44:18Z</time>
   </trkpt>
   <trkpt lat="53.4418920" lon="-6.1405480">
    <ele>48.2</ele>
    <time>2025-08-29T12:44:23Z</time>
   </trkpt>
   <trkpt lat="53.4418500" lon="-6.1404040">
    <ele>48.2</ele>
    <time>2025-08-29T12:44:29Z</time>
   </trkpt>
   <trkpt lat="53.4418510" lon="-6.1402540">
    <ele>48.2</ele>
    <time>2025-08-29T12:44:34Z</time>
   </trkpt>
   <trkpt lat="53.4418730" lon="-6.1401220">
    <ele>48.2</ele>
    <time>2025-08-29T12:44:40Z</time>
   </trkpt>
   <trkpt lat="53.4418950" lon="-6.1399830">
    <ele>48.1</ele>
    <time>2025-08-29T12:44:45Z</time>
   </trkpt>
   <trkpt lat="53.4419020" lon="-6.1398560">
    <ele>48.0</ele>
    <time>2025-08-29T12:44:50Z</time>
   </trkpt>
   <trkpt lat="53.4419390" lon="-6.1397450">
    <ele>47.9</ele>
    <time>2025-08-29T12:44:56Z</time>
   </trkpt>
   <trkpt lat="53.4419550" lon="-6.1396190">
    <ele>47.7</ele>
    <time>2025-08-29T12:45:01Z</time>
   </trkpt>
   <trkpt lat="53.4419570" lon="-6.1394750">
    <ele>47.4</ele>
    <time>2025-08-29T12:45:07Z</time>
   </trkpt>
   <trkpt lat="53.4419740" lon="-6.1393430">
    <ele>47.1</ele>
    <time>2025-08-29T12:45:12Z</time>
   </trkpt>
   <trkpt lat="53.4419730" lon="-6.1391930">
    <ele>46.8</ele>
    <time>2025-08-29T12:45:17Z</time>
   </trkpt>
   <trkpt lat="53.4419580" lon="-6.1390570">
    <ele>46.3</ele>
    <time>2025-08-29T12:45:23Z</time>
   </trkpt>
   <trkpt lat="53.4419550" lon="-6.1389310">
    <ele>46.1</ele>
    <time>2025-08-29T12:45:28Z</time>
   </trkpt>
   <trkpt lat="53.4419580" lon="-6.1387880">
    <ele>45.9</ele>
    <time>2025-08-29T12:45:33Z</time>
   </trkpt>
   <trkpt lat="53.4419470" lon="-6.1386790">
    <ele>45.6</ele>
    <time>2025-08-29T12:45:39Z</time>
   </trkpt>
   <trkpt lat="53.4419910" lon="-6.1385730">
    <ele>45.5</ele>
    <time>2025-08-29T12:45:44Z</time>
   </trkpt>
   <trkpt lat="53.4420500" lon="-6.1384530">
    <ele>45.3</ele>
    <time>2025-08-29T12:45:50Z</time>
   </trkpt>
   <trkpt lat="53.4420900" lon="-6.1383360">
    <ele>45.1</ele>
    <time>2025-08-29T12:45:55Z</time>
   </trkpt>
   <trkpt lat="53.4421370" lon="-6.1382300">
    <ele>44.9</ele>
    <time>2025-08-29T12:46:01Z</time>
   </trkpt>
   <trkpt lat="53.4421800" lon="-6.1381400">
    <ele>44.6</ele>
    <time>2025-08-29T12:46:06Z</time>
   </trkpt>
   <trkpt lat="53.4422380" lon="-6.1380230">
    <ele>44.4</ele>
    <time>2025-08-29T12:46:11Z</time>
   </trkpt>
   <trkpt lat="53.4422730" lon="-6.1379200">
    <ele>44.1</ele>
    <time>2025-08-29T12:46:17Z</time>
   </trkpt>
   <trkpt lat="53.4422940" lon="-6.1378520">
    <ele>43.7</ele>
    <time>2025-08-29T12:46:41Z</time>
   </trkpt>
   <trkpt lat="53.4423710" lon="-6.1377170">
    <ele>43.6</ele>
    <time>2025-08-29T12:46:47Z</time>
   </trkpt>
   <trkpt lat="53.4424400" lon="-6.1376160">
    <ele>43.4</ele>
    <time>2025-08-29T12:46:52Z</time>
   </trkpt>
   <trkpt lat="53.4424710" lon="-6.1375010">
    <ele>43.2</ele>
    <time>2025-08-29T12:46:58Z</time>
   </trkpt>
   <trkpt lat="53.4425140" lon="-6.1373980">
    <ele>43.0</ele>
    <time>2025-08-29T12:47:03Z</time>
   </trkpt>
   <trkpt lat="53.4425480" lon="-6.1372840">
    <ele>42.7</ele>
    <time>2025-08-29T12:47:09Z</time>
   </trkpt>
   <trkpt lat="53.4425650" lon="-6.1371320">
    <ele>42.4</ele>
    <time>2025-08-29T12:47:14Z</time>
   </trkpt>
   <trkpt lat="53.4425760" lon="-6.1370020">
    <ele>41.8</ele>
    <time>2025-08-29T12:47:20Z</time>
   </trkpt>
   <trkpt lat="53.4425570" lon="-6.1368840">
    <ele>41.5</ele>
    <time>2025-08-29T12:47:25Z</time>
   </trkpt>
   <trkpt lat="53.4425240" lon="-6.1367500">
    <ele>40.9</ele>
    <time>2025-08-29T12:47:30Z</time>
   </trkpt>
   <trkpt lat="53.4424890" lon="-6.1366380">
    <ele>40.5</ele>
    <time>2025-08-29T12:47:36Z</time>
   </trkpt>
   <trkpt lat="53.4424600" lon="-6.1365020">
    <ele>40.1</ele>
    <time>2025-08-29T12:47:41Z</time>
   </trkpt>
   <trkpt lat="53.4424280" lon="-6.1363720">
    <ele>39.7</ele>
    <time>2025-08-29T12:47:47Z</time>
   </trkpt>
   <trkpt lat="53.4424090" lon="-6.1362550">
    <ele>39.4</ele>
    <time>2025-08-29T12:47:52Z</time>
   </trkpt>
   <trkpt lat="53.4423880" lon="-6.1361260">
    <ele>39.1</ele>
    <time>2025-08-29T12:47:57Z</time>
   </trkpt>
   <trkpt lat="53.4423670" lon="-6.1360020">
    <ele>38.8</ele>
    <time>2025-08-29T12:48:03Z</time>
   </trkpt>
   <trkpt lat="53.4423560" lon="-6.1358650">
    <ele>38.5</ele>
    <time>2025-08-29T12:48:08Z</time>
   </trkpt>
   <trkpt lat="53.4423370" lon="-6.1357300">
    <ele>38.3</ele>
    <time>2025-08-29T12:48:13Z</time>
   </trkpt>
   <trkpt lat="53.4423180" lon="-6.1356270">
    <ele>38.0</ele>
    <time>2025-08-29T12:48:18Z</time>
   </trkpt>
   <trkpt lat="53.4423160" lon="-6.1354750">
    <ele>37.8</ele>
    <time>2025-08-29T12:48:24Z</time>
   </trkpt>
   <trkpt lat="53.4422990" lon="-6.1353330">
    <ele>37.5</ele>
    <time>2025-08-29T12:48:29Z</time>
   </trkpt>
   <trkpt lat="53.4422810" lon="-6.1352210">
    <ele>37.3</ele>
    <time>2025-08-29T12:48:35Z</time>
   </trkpt>
   <trkpt lat="53.4422510" lon="-6.1351000">
    <ele>37.0</ele>
    <time>2025-08-29T12:48:40Z</time>
   </trkpt>
   <trkpt lat="53.4422160" lon="-6.1349940">
    <ele>36.7</ele>
    <time>2025-08-29T12:48:45Z</time>
   </trkpt>
   <trkpt lat="53.4421870" lon="-6.1348460">
    <ele>36.5</ele>
    <time>2025-08-29T12:48:51Z</time>
   </trkpt>
   <trkpt lat="53.4421730" lon="-6.1347450">
    <ele>36.1</ele>
    <time>2025-08-29T12:48:56Z</time>
   </trkpt>
   <trkpt lat="53.4421370" lon="-6.1346030">
    <ele>35.8</ele>
    <time>2025-08-29T12:49:02Z</time>
   </trkpt>
   <trkpt lat="53.4421180" lon="-6.1344720">
    <ele>35.3</ele>
    <time>2025-08-29T12:49:08Z</time>
   </trkpt>
   <trkpt lat="53.4420960" lon="-6.1343560">
    <ele>34.9</ele>
    <time>2025-08-29T12:49:13Z</time>
   </trkpt>
   <trkpt lat="53.4420170" lon="-6.1342960">
    <ele>34.5</ele>
    <time>2025-08-29T12:49:19Z</time>
   </trkpt>
   <trkpt lat="53.4419440" lon="-6.1342930">
    <ele>34.4</ele>
    <time>2025-08-29T12:49:24Z</time>
   </trkpt>
   <trkpt lat="53.4418700" lon="-6.1342540">
    <ele>34.2</ele>
    <time>2025-08-29T12:49:29Z</time>
   </trkpt>
   <trkpt lat="53.4418020" lon="-6.1342000">
    <ele>34.1</ele>
    <time>2025-08-29T12:49:35Z</time>
   </trkpt>
   <trkpt lat="53.4417280" lon="-6.1341290">
    <ele>34.0</ele>
    <time>2025-08-29T12:49:40Z</time>
   </trkpt>
   <trkpt lat="53.4416640" lon="-6.1340690">
    <ele>33.9</ele>
    <time>2025-08-29T12:49:46Z</time>
   </trkpt>
   <trkpt lat="53.4415920" lon="-6.1339990">
    <ele>33.9</ele>
    <time>2025-08-29T12:49:52Z</time>
   </trkpt>
   <trkpt lat="53.4415300" lon="-6.1339510">
    <ele>33.9</ele>
    <time>2025-08-29T12:49:57Z</time>
   </trkpt>
   <trkpt lat="53.4414540" lon="-6.1338870">
    <ele>33.9</ele>
    <time>2025-08-29T12:50:02Z</time>
   </trkpt>
   <trkpt lat="53.4414080" lon="-6.1338370">
    <ele>33.9</ele>
    <time>2025-08-29T12:50:07Z</time>
   </trkpt>
   <trkpt lat="53.4413580" lon="-6.1338210">
    <ele>33.8</ele>
    <time>2025-08-29T12:51:11Z</time>
   </trkpt>
   <trkpt lat="53.4412930" lon="-6.1338690">
    <ele>33.9</ele>
    <time>2025-08-29T12:51:16Z</time>
   </trkpt>
   <trkpt lat="53.4412670" lon="-6.1338040">
    <ele>33.9</ele>
    <time>2025-08-29T12:51:45Z</time>
   </trkpt>
   <trkpt lat="53.4412250" lon="-6.1337720">
    <ele>33.8</ele>
    <time>2025-08-29T12:52:16Z</time>
   </trkpt>
   <trkpt lat="53.4411650" lon="-6.1337490">
    <ele>33.8</ele>
    <time>2025-08-29T12:52:31Z</time>
   </trkpt>
   <trkpt lat="53.4411200" lon="-6.1336950">
    <ele>33.8</ele>
    <time>2025-08-29T12:52:40Z</time>
   </trkpt>
   <trkpt lat="53.4410380" lon="-6.1336400">
    <ele>33.7</ele>
    <time>2025-08-29T12:52:45Z</time>
   </trkpt>
   <trkpt lat="53.4409830" lon="-6.1336310">
    <ele>33.7</ele>
    <time>2025-08-29T12:52:51Z</time>
   </trkpt>
   <trkpt lat="53.4409410" lon="-6.1335910">
    <ele>33.6</ele>
    <time>2025-08-29T12:52:57Z</time>
   </trkpt>
   <trkpt lat="53.4408670" lon="-6.1335600">
    <ele>33.6</ele>
    <time>2025-08-29T12:53:03Z</time>
   </trkpt>
   <trkpt lat="53.4407950" lon="-6.1335260">
    <ele>33.5</ele>
    <time>2025-08-29T12:53:08Z</time>
   </trkpt>
   <trkpt lat="53.4407430" lon="-6.1335670">
    <ele>33.6</ele>
    <time>2025-08-29T12:53:14Z</time>
   </trkpt>
   <trkpt lat="53.4407200" lon="-6.1334940">
    <ele>33.7</ele>
    <time>2025-08-29T12:53:20Z</time>
   </trkpt>
   <trkpt lat="53.4406440" lon="-6.1334400">
    <ele>33.7</ele>
    <time>2025-08-29T12:53:25Z</time>
   </trkpt>
   <trkpt lat="53.4405680" lon="-6.1334360">
    <ele>33.8</ele>
    <time>2025-08-29T12:53:31Z</time>
   </trkpt>
   <trkpt lat="53.4405020" lon="-6.1334150">
    <ele>34.0</ele>
    <time>2025-08-29T12:53:36Z</time>
   </trkpt>
   <trkpt lat="53.4404570" lon="-6.1333840">
    <ele>34.2</ele>
    <time>2025-08-29T12:53:48Z</time>
   </trkpt>
   <trkpt lat="53.4403540" lon="-6.1332800">
    <ele>34.4</ele>
    <time>2025-08-29T12:53:54Z</time>
   </trkpt>
   <trkpt lat="53.4402890" lon="-6.1331990">
    <ele>34.6</ele>
    <time>2025-08-29T12:53:59Z</time>
   </trkpt>
   <trkpt lat="53.4402270" lon="-6.1331360">
    <ele>34.8</ele>
    <time>2025-08-29T12:54:05Z</time>
   </trkpt>
   <trkpt lat="53.4401460" lon="-6.1330680">
    <ele>34.9</ele>
    <time>2025-08-29T12:54:10Z</time>
   </trkpt>
   <trkpt lat="53.4400660" lon="-6.1330080">
    <ele>35.2</ele>
    <time>2025-08-29T12:54:15Z</time>
   </trkpt>
   <trkpt lat="53.4399880" lon="-6.1329820">
    <ele>35.4</ele>
    <time>2025-08-29T12:54:21Z</time>
   </trkpt>
   <trkpt lat="53.4399250" lon="-6.1329030">
    <ele>35.6</ele>
    <time>2025-08-29T12:54:26Z</time>
   </trkpt>
   <trkpt lat="53.4398560" lon="-6.1328330">
    <ele>35.8</ele>
    <time>2025-08-29T12:54:32Z</time>
   </trkpt>
   <trkpt lat="53.4397880" lon="-6.1327630">
    <ele>35.9</ele>
    <time>2025-08-29T12:54:37Z</time>
   </trkpt>
   <trkpt lat="53.4397260" lon="-6.1327120">
    <ele>36.1</ele>
    <time>2025-08-29T12:54:42Z</time>
   </trkpt>
   <trkpt lat="53.4396490" lon="-6.1326540">
    <ele>36.2</ele>
    <time>2025-08-29T12:54:48Z</time>
   </trkpt>
   <trkpt lat="53.4395790" lon="-6.1326170">
    <ele>36.4</ele>
    <time>2025-08-29T12:54:53Z</time>
   </trkpt>
   <trkpt lat="53.4395100" lon="-6.1325660">
    <ele>36.5</ele>
    <time>2025-08-29T12:54:58Z</time>
   </trkpt>
   <trkpt lat="53.4394530" lon="-6.1325500">
    <ele>36.7</ele>
    <time>2025-08-29T12:55:03Z</time>
   </trkpt>
   <trkpt lat="53.4393840" lon="-6.1325190">
    <ele>36.8</ele>
    <time>2025-08-29T12:55:09Z</time>
   </trkpt>
   <trkpt lat="53.4393170" lon="-6.1325120">
    <ele>36.9</ele>
    <time>2025-08-29T12:55:14Z</time>
   </trkpt>
   <trkpt lat="53.4392570" lon="-6.1324700">
    <ele>36.9</ele>
    <time>2025-08-29T12:55:20Z</time>
   </trkpt>
   <trkpt lat="53.4392140" lon="-6.1325500">
    <ele>37.0</ele>
    <time>2025-08-29T12:55:25Z</time>
   </trkpt>
   <trkpt lat="53.4392020" lon="-6.1326250">
    <ele>37.1</ele>
    <time>2025-08-29T12:55:56Z</time>
   </trkpt>
   <trkpt lat="53.4391790" lon="-6.1327640">
    <ele>37.2</ele>
    <time>2025-08-29T12:56:01Z</time>
   </trkpt>
   <trkpt lat="53.4391890" lon="-6.1329190">
    <ele>37.2</ele>
    <time>2025-08-29T12:56:07Z</time>
   </trkpt>
   <trkpt lat="53.4391660" lon="-6.1330340">
    <ele>37.2</ele>
    <time>2025-08-29T12:56:12Z</time>
   </trkpt>
   <trkpt lat="53.4391460" lon="-6.1331380">
    <ele>37.1</ele>
    <time>2025-08-29T12:56:18Z</time>
   </trkpt>
   <trkpt lat="53.4391580" lon="-6.1332660">
    <ele>37.1</ele>
    <time>2025-08-29T12:56:23Z</time>
   </trkpt>
   <trkpt lat="53.4391390" lon="-6.1333600">
    <ele>37.0</ele>
    <time>2025-08-29T12:56:29Z</time>
   </trkpt>
   <trkpt lat="53.4391250" lon="-6.1334650">
    <ele>36.9</ele>
    <time>2025-08-29T12:56:34Z</time>
   </trkpt>
   <trkpt lat="53.4391090" lon="-6.1335710">
    <ele>36.8</ele>
    <time>2025-08-29T12:56:39Z</time>
   </trkpt>
   <trkpt lat="53.4390550" lon="-6.1336920">
    <ele>36.7</ele>
    <time>2025-08-29T12:56:45Z</time>
   </trkpt>
   <trkpt lat="53.4389940" lon="-6.1337660">
    <ele>36.5</ele>
    <time>2025-08-29T12:56:50Z</time>
   </trkpt>
   <trkpt lat="53.4389170" lon="-6.1338310">
    <ele>36.2</ele>
    <time>2025-08-29T12:56:56Z</time>
   </trkpt>
   <trkpt lat="53.4388550" lon="-6.1339140">
    <ele>35.9</ele>
    <time>2025-08-29T12:57:01Z</time>
   </trkpt>
   <trkpt lat="53.4387900" lon="-6.1340110">
    <ele>35.6</ele>
    <time>2025-08-29T12:57:06Z</time>
   </trkpt>
   <trkpt lat="53.4387370" lon="-6.1340860">
    <ele>35.1</ele>
    <time>2025-08-29T12:57:12Z</time>
   </trkpt>
   <trkpt lat="53.4386790" lon="-6.1341700">
    <ele>34.9</ele>
    <time>2025-08-29T12:57:17Z</time>
   </trkpt>
   <trkpt lat="53.4386080" lon="-6.1342100">
    <ele>34.5</ele>
    <time>2025-08-29T12:57:22Z</time>
   </trkpt>
   <trkpt lat="53.4385360" lon="-6.1342750">
    <ele>34.1</ele>
    <time>2025-08-29T12:57:28Z</time>
   </trkpt>
   <trkpt lat="53.4384620" lon="-6.1343870">
    <ele>33.7</ele>
    <time>2025-08-29T12:57:33Z</time>
   </trkpt>
   <trkpt lat="53.4384100" lon="-6.1344660">
    <ele>33.3</ele>
    <time>2025-08-29T12:57:38Z</time>
   </trkpt>
   <trkpt lat="53.4383280" lon="-6.1345110">
    <ele>32.9</ele>
    <time>2025-08-29T12:57:44Z</time>
   </trkpt>
   <trkpt lat="53.4382680" lon="-6.1345810">
    <ele>32.5</ele>
    <time>2025-08-29T12:57:49Z</time>
   </trkpt>
   <trkpt lat="53.4381940" lon="-6.1346120">
    <ele>32.2</ele>
    <time>2025-08-29T12:57:54Z</time>
   </trkpt>
   <trkpt lat="53.4381200" lon="-6.1346320">
    <ele>31.9</ele>
    <time>2025-08-29T12:57:59Z</time>
   </trkpt>
   <trkpt lat="53.4380290" lon="-6.1346440">
    <ele>31.6</ele>
    <time>2025-08-29T12:58:05Z</time>
   </trkpt>
   <trkpt lat="53.4379440" lon="-6.1346410">
    <ele>31.3</ele>
    <time>2025-08-29T12:58:11Z</time>
   </trkpt>
   <trkpt lat="53.4378920" lon="-6.1346110">
    <ele>31.0</ele>
    <time>2025-08-29T12:58:16Z</time>
   </trkpt>
   <trkpt lat="53.4378040" lon="-6.1345420">
    <ele>30.8</ele>
    <time>2025-08-29T12:58:22Z</time>
   </trkpt>
   <trkpt lat="53.4377320" lon="-6.1344990">
    <ele>30.5</ele>
    <time>2025-08-29T12:58:27Z</time>
   </trkpt>
   <trkpt lat="53.4376530" lon="-6.1344110">
    <ele>30.4</ele>
    <time>2025-08-29T12:58:33Z</time>
   </trkpt>
   <trkpt lat="53.4375700" lon="-6.1343600">
    <ele>30.2</ele>
    <time>2025-08-29T12:58:38Z</time>
   </trkpt>
   <trkpt lat="53.4374700" lon="-6.1344240">
    <ele>30.0</ele>
    <time>2025-08-29T12:58:44Z</time>
   </trkpt>
   <trkpt lat="53.4373710" lon="-6.1345720">
    <ele>29.7</ele>
    <time>2025-08-29T12:58:49Z</time>
   </trkpt>
   <trkpt lat="53.4372970" lon="-6.1345680">
    <ele>29.3</ele>
    <time>2025-08-29T12:58:55Z</time>
   </trkpt>
   <trkpt lat="53.4372260" lon="-6.1345980">
    <ele>29.1</ele>
    <time>2025-08-29T12:59:00Z</time>
   </trkpt>
   <trkpt lat="53.4371470" lon="-6.1346130">
    <ele>28.8</ele>
    <time>2025-08-29T12:59:06Z</time>
   </trkpt>
   <trkpt lat="53.4370600" lon="-6.1345890">
    <ele>28.7</ele>
    <time>2025-08-29T12:59:11Z</time>
   </trkpt>
   <trkpt lat="53.4369770" lon="-6.1345750">
    <ele>28.5</ele>
    <time>2025-08-29T12:59:16Z</time>
   </trkpt>
   <trkpt lat="53.4368970" lon="-6.1345980">
    <ele>28.4</ele>
    <time>2025-08-29T12:59:22Z</time>
   </trkpt>
   <trkpt lat="53.4368160" lon="-6.1346140">
    <ele>28.2</ele>
    <time>2025-08-29T12:59:27Z</time>
   </trkpt>
   <trkpt lat="53.4367470" lon="-6.1346140">
    <ele>28.1</ele>
    <time>2025-08-29T12:59:32Z</time>
   </trkpt>
   <trkpt lat="53.4366710" lon="-6.1346060">
    <ele>28.1</ele>
    <time>2025-08-29T12:59:37Z</time>
   </trkpt>
   <trkpt lat="53.4365920" lon="-6.1346400">
    <ele>28.0</ele>
    <time>2025-08-29T12:59:42Z</time>
   </trkpt>
   <trkpt lat="53.4365340" lon="-6.1346580">
    <ele>27.9</ele>
    <time>2025-08-29T12:59:47Z</time>
   </trkpt>
   <trkpt lat="53.4364520" lon="-6.1346500">
    <ele>27.9</ele>
    <time>2025-08-29T12:59:53Z</time>
   </trkpt>
   <trkpt lat="53.4363630" lon="-6.1346120">
    <ele>27.9</ele>
    <time>2025-08-29T12:59:59Z</time>
   </trkpt>
   <trkpt lat="53.4362750" lon="-6.1346090">
    <ele>28.0</ele>
    <time>2025-08-29T13:00:04Z</time>
   </trkpt>
   <trkpt lat="53.4361870" lon="-6.1346520">
    <ele>28.0</ele>
    <time>2025-08-29T13:00:09Z</time>
   </trkpt>
   <trkpt lat="53.4361670" lon="-6.1348070">
    <ele>28.0</ele>
    <time>2025-08-29T13:00:15Z</time>
   </trkpt>
   <trkpt lat="53.4361670" lon="-6.1349510">
    <ele>28.1</ele>
    <time>2025-08-29T13:00:20Z</time>
   </trkpt>
   <trkpt lat="53.4361860" lon="-6.1350320">
    <ele>28.1</ele>
    <time>2025-08-29T13:00:25Z</time>
   </trkpt>
   <trkpt lat="53.4361610" lon="-6.1351100">
    <ele>28.1</ele>
    <time>2025-08-29T13:00:34Z</time>
   </trkpt>
   <trkpt lat="53.4361370" lon="-6.1352530">
    <ele>28.1</ele>
    <time>2025-08-29T13:00:40Z</time>
   </trkpt>
   <trkpt lat="53.4361410" lon="-6.1353510">
    <ele>28.1</ele>
    <time>2025-08-29T13:00:45Z</time>
   </trkpt>
   <trkpt lat="53.4361370" lon="-6.1354590">
    <ele>28.1</ele>
    <time>2025-08-29T13:00:50Z</time>
   </trkpt>
   <trkpt lat="53.4360660" lon="-6.1354390">
    <ele>28.1</ele>
    <time>2025-08-29T13:00:55Z</time>
   </trkpt>
   <trkpt lat="53.4359790" lon="-6.1353610">
    <ele>28.1</ele>
    <time>2025-08-29T13:01:01Z</time>
   </trkpt>
   <trkpt lat="53.4359010" lon="-6.1352890">
    <ele>28.1</ele>
    <time>2025-08-29T13:01:06Z</time>
   </trkpt>
   <trkpt lat="53.4358220" lon="-6.1352820">
    <ele>28.1</ele>
    <time>2025-08-29T13:01:12Z</time>
   </trkpt>
   <trkpt lat="53.4357240" lon="-6.1352790">
    <ele>28.0</ele>
    <time>2025-08-29T13:01:17Z</time>
   </trkpt>
   <trkpt lat="53.4356530" lon="-6.1352810">
    <ele>27.8</ele>
    <time>2025-08-29T13:01:23Z</time>
   </trkpt>
   <trkpt lat="53.4355750" lon="-6.1352850">
    <ele>27.7</ele>
    <time>2025-08-29T13:01:28Z</time>
   </trkpt>
   <trkpt lat="53.4354900" lon="-6.1352440">
    <ele>27.4</ele>
    <time>2025-08-29T13:01:34Z</time>
   </trkpt>
   <trkpt lat="53.4354230" lon="-6.1351930">
    <ele>27.2</ele>
    <time>2025-08-29T13:01:39Z</time>
   </trkpt>
   <trkpt lat="53.4353290" lon="-6.1351700">
    <ele>27.0</ele>
    <time>2025-08-29T13:01:44Z</time>
   </trkpt>
   <trkpt lat="53.4352620" lon="-6.1351480">
    <ele>26.7</ele>
    <time>2025-08-29T13:01:50Z</time>
   </trkpt>
   <trkpt lat="53.4351900" lon="-6.1351400">
    <ele>26.5</ele>
    <time>2025-08-29T13:01:55Z</time>
   </trkpt>
   <trkpt lat="53.4351070" lon="-6.1351310">
    <ele>26.3</ele>
    <time>2025-08-29T13:02:01Z</time>
   </trkpt>
   <trkpt lat="53.4350650" lon="-6.1351620">
    <ele>26.1</ele>
    <time>2025-08-29T13:02:07Z</time>
   </trkpt>
   <trkpt lat="53.4349950" lon="-6.1352340">
    <ele>26.0</ele>
    <time>2025-08-29T13:02:12Z</time>
   </trkpt>
   <trkpt lat="53.4349170" lon="-6.1353110">
    <ele>26.0</ele>
    <time>2025-08-29T13:02:18Z</time>
   </trkpt>
   <trkpt lat="53.4348930" lon="-6.1354700">
    <ele>25.9</ele>
    <time>2025-08-29T13:02:24Z</time>
   </trkpt>
   <trkpt lat="53.4348890" lon="-6.1356430">
    <ele>25.9</ele>
    <time>2025-08-29T13:02:29Z</time>
   </trkpt>
   <trkpt lat="53.4348710" lon="-6.1357560">
    <ele>25.9</ele>
    <time>2025-08-29T13:02:35Z</time>
   </trkpt>
   <trkpt lat="53.4348700" lon="-6.1358710">
    <ele>25.8</ele>
    <time>2025-08-29T13:02:40Z</time>
   </trkpt>
   <trkpt lat="53.4348690" lon="-6.1360100">
    <ele>25.8</ele>
    <time>2025-08-29T13:02:46Z</time>
   </trkpt>
   <trkpt lat="53.4348710" lon="-6.1361500">
    <ele>25.8</ele>
    <time>2025-08-29T13:02:51Z</time>
   </trkpt>
   <trkpt lat="53.4348600" lon="-6.1362810">
    <ele>25.8</ele>
    <time>2025-08-29T13:02:56Z</time>
   </trkpt>
   <trkpt lat="53.4348100" lon="-6.1363880">
    <ele>25.8</ele>
    <time>2025-08-29T13:03:02Z</time>
   </trkpt>
   <trkpt lat="53.4347330" lon="-6.1364420">
    <ele>25.7</ele>
    <time>2025-08-29T13:03:07Z</time>
   </trkpt>
   <trkpt lat="53.4346600" lon="-6.1363920">
    <ele>25.5</ele>
    <time>2025-08-29T13:03:12Z</time>
   </trkpt>
   <trkpt lat="53.4345810" lon="-6.1363470">
    <ele>25.4</ele>
    <time>2025-08-29T13:03:18Z</time>
   </trkpt>
   <trkpt lat="53.4345010" lon="-6.1363670">
    <ele>25.3</ele>
    <time>2025-08-29T13:03:23Z</time>
   </trkpt>
   <trkpt lat="53.4344210" lon="-6.1363690">
    <ele>25.1</ele>
    <time>2025-08-29T13:03:29Z</time>
   </trkpt>
   <trkpt lat="53.4343250" lon="-6.1363500">
    <ele>25.0</ele>
    <time>2025-08-29T13:03:34Z</time>
   </trkpt>
   <trkpt lat="53.4342580" lon="-6.1363320">
    <ele>24.8</ele>
    <time>2025-08-29T13:03:40Z</time>
   </trkpt>
   <trkpt lat="53.4341790" lon="-6.1363140">
    <ele>24.6</ele>
    <time>2025-08-29T13:03:45Z</time>
   </trkpt>
   <trkpt lat="53.4340860" lon="-6.1363040">
    <ele>24.4</ele>
    <time>2025-08-29T13:03:50Z</time>
   </trkpt>
   <trkpt lat="53.4339880" lon="-6.1362790">
    <ele>24.2</ele>
    <time>2025-08-29T13:03:56Z</time>
   </trkpt>
   <trkpt lat="53.4338920" lon="-6.1362970">
    <ele>24.0</ele>
    <time>2025-08-29T13:04:02Z</time>
   </trkpt>
   <trkpt lat="53.4338270" lon="-6.1362930">
    <ele>23.7</ele>
    <time>2025-08-29T13:04:07Z</time>
   </trkpt>
   <trkpt lat="53.4337520" lon="-6.1362780">
    <ele>23.5</ele>
    <time>2025-08-29T13:04:12Z</time>
   </trkpt>
   <trkpt lat="53.4336830" lon="-6.1363370">
    <ele>23.2</ele>
    <time>2025-08-29T13:04:18Z</time>
   </trkpt>
   <trkpt lat="53.4336340" lon="-6.1362830">
    <ele>23.0</ele>
    <time>2025-08-29T13:04:27Z</time>
   </trkpt>
   <trkpt lat="53.4335350" lon="-6.1363040">
    <ele>22.7</ele>
    <time>2025-08-29T13:04:33Z</time>
   </trkpt>
   <trkpt lat="53.4334590" lon="-6.1363260">
    <ele>22.4</ele>
    <time>2025-08-29T13:04:38Z</time>
   </trkpt>
   <trkpt lat="53.4333820" lon="-6.1363140">
    <ele>22.2</ele>
    <time>2025-08-29T13:04:43Z</time>
   </trkpt>
   <trkpt lat="53.4333010" lon="-6.1363020">
    <ele>22.0</ele>
    <time>2025-08-29T13:04:49Z</time>
   </trkpt>
   <trkpt lat="53.4332210" lon="-6.1362950">
    <ele>21.9</ele>
    <time>2025-08-29T13:04:54Z</time>
   </trkpt>
   <trkpt lat="53.4331500" lon="-6.1362540">
    <ele>21.7</ele>
    <time>2025-08-29T13:05:00Z</time>
   </trkpt>
   <trkpt lat="53.4330670" lon="-6.1362610">
    <ele>21.6</ele>
    <time>2025-08-29T13:05:05Z</time>
   </trkpt>
   <trkpt lat="53.4329760" lon="-6.1362410">
    <ele>21.5</ele>
    <time>2025-08-29T13:05:11Z</time>
   </trkpt>
   <trkpt lat="53.4329030" lon="-6.1361950">
    <ele>21.4</ele>
    <time>2025-08-29T13:05:16Z</time>
   </trkpt>
   <trkpt lat="53.4328230" lon="-6.1361600">
    <ele>21.4</ele>
    <time>2025-08-29T13:05:21Z</time>
   </trkpt>
   <trkpt lat="53.4327540" lon="-6.1361310">
    <ele>21.3</ele>
    <time>2025-08-29T13:05:26Z</time>
   </trkpt>
   <trkpt lat="53.4326760" lon="-6.1361080">
    <ele>21.2</ele>
    <time>2025-08-29T13:05:32Z</time>
   </trkpt>
   <trkpt lat="53.4326170" lon="-6.1360190">
    <ele>21.1</ele>
    <time>2025-08-29T13:05:38Z</time>
   </trkpt>
   <trkpt lat="53.4325470" lon="-6.1359590">
    <ele>21.1</ele>
    <time>2025-08-29T13:05:43Z</time>
   </trkpt>
   <trkpt lat="53.4324690" lon="-6.1358900">
    <ele>21.0</ele>
    <time>2025-08-29T13:05:49Z</time>
   </trkpt>
   <trkpt lat="53.4323910" lon="-6.1358090">
    <ele>20.9</ele>
    <time>2025-08-29T13:05:54Z</time>
   </trkpt>
   <trkpt lat="53.4323070" lon="-6.1357700">
    <ele>20.8</ele>
    <time>2025-08-29T13:05:59Z</time>
   </trkpt>
   <trkpt lat="53.4322510" lon="-6.1357380">
    <ele>20.6</ele>
    <time>2025-08-29T13:06:04Z</time>
   </trkpt>
   <trkpt lat="53.4321720" lon="-6.1356990">
    <ele>20.5</ele>
    <time>2025-08-29T13:06:10Z</time>
   </trkpt>
   <trkpt lat="53.4320970" lon="-6.1356610">
    <ele>20.3</ele>
    <time>2025-08-29T13:06:15Z</time>
   </trkpt>
   <trkpt lat="53.4320210" lon="-6.1355590">
    <ele>20.1</ele>
    <time>2025-08-29T13:06:21Z</time>
   </trkpt>
   <trkpt lat="53.4319590" lon="-6.1354680">
    <ele>19.9</ele>
    <time>2025-08-29T13:06:26Z</time>
   </trkpt>
   <trkpt lat="53.4318890" lon="-6.1353880">
    <ele>19.7</ele>
    <time>2025-08-29T13:06:32Z</time>
   </trkpt>
   <trkpt lat="53.4318450" lon="-6.1353130">
    <ele>19.5</ele>
    <time>2025-08-29T13:06:37Z</time>
   </trkpt>
   <trkpt lat="53.4317660" lon="-6.1352280">
    <ele>19.4</ele>
    <time>2025-08-29T13:06:42Z</time>
   </trkpt>
   <trkpt lat="53.4316940" lon="-6.1351430">
    <ele>19.2</ele>
    <time>2025-08-29T13:06:47Z</time>
   </trkpt>
   <trkpt lat="53.4316380" lon="-6.1350450">
    <ele>19.0</ele>
    <time>2025-08-29T13:06:53Z</time>
   </trkpt>
   <trkpt lat="53.4315810" lon="-6.1349610">
    <ele>19.0</ele>
    <time>2025-08-29T13:06:58Z</time>
   </trkpt>
   <trkpt lat="53.4315270" lon="-6.1348860">
    <ele>18.9</ele>
    <time>2025-08-29T13:07:03Z</time>
   </trkpt>
   <trkpt lat="53.4314620" lon="-6.1348030">
    <ele>18.9</ele>
    <time>2025-08-29T13:07:09Z</time>
   </trkpt>
   <trkpt lat="53.4314090" lon="-6.1347050">
    <ele>18.9</ele>
    <time>2025-08-29T13:07:14Z</time>
   </trkpt>
   <trkpt lat="53.4313720" lon="-6.1345990">
    <ele>19.0</ele>
    <time>2025-08-29T13:07:19Z</time>
   </trkpt>
   <trkpt lat="53.4313330" lon="-6.1344830">
    <ele>19.2</ele>
    <time>2025-08-29T13:07:25Z</time>
   </trkpt>
   <trkpt lat="53.4312870" lon="-6.1343910">
    <ele>19.3</ele>
    <time>2025-08-29T13:07:30Z</time>
   </trkpt>
   <trkpt lat="53.4312270" lon="-6.1342880">
    <ele>19.5</ele>
    <time>2025-08-29T13:07:35Z</time>
   </trkpt>
   <trkpt lat="53.4311330" lon="-6.1342440">
    <ele>19.6</ele>
    <time>2025-08-29T13:07:41Z</time>
   </trkpt>
   <trkpt lat="53.4310640" lon="-6.1341610">
    <ele>19.6</ele>
    <time>2025-08-29T13:07:46Z</time>
   </trkpt>
   <trkpt lat="53.4310180" lon="-6.1340530">
    <ele>19.7</ele>
    <time>2025-08-29T13:07:52Z</time>
   </trkpt>
   <trkpt lat="53.4309730" lon="-6.1339630">
    <ele>19.8</ele>
    <time>2025-08-29T13:07:57Z</time>
   </trkpt>
   <trkpt lat="53.4308800" lon="-6.1338940">
    <ele>19.9</ele>
    <time>2025-08-29T13:08:02Z</time>
   </trkpt>
   <trkpt lat="53.4308230" lon="-6.1338280">
    <ele>19.8</ele>
    <time>2025-08-29T13:08:07Z</time>
   </trkpt>
   <trkpt lat="53.4307770" lon="-6.1337250">
    <ele>19.8</ele>
    <time>2025-08-29T13:08:13Z</time>
   </trkpt>
   <trkpt lat="53.4307120" lon="-6.1336320">
    <ele>19.8</ele>
    <time>2025-08-29T13:08:18Z</time>
   </trkpt>
   <trkpt lat="53.4306450" lon="-6.1335450">
    <ele>19.7</ele>
    <time>2025-08-29T13:08:23Z</time>
   </trkpt>
   <trkpt lat="53.4305740" lon="-6.1334680">
    <ele>19.5</ele>
    <time>2025-08-29T13:08:29Z</time>
   </trkpt>
   <trkpt lat="53.4304850" lon="-6.1334250">
    <ele>19.2</ele>
    <time>2025-08-29T13:08:34Z</time>
   </trkpt>
   <trkpt lat="53.4304060" lon="-6.1333820">
    <ele>18.9</ele>
    <time>2025-08-29T13:08:40Z</time>
   </trkpt>
   <trkpt lat="53.4303210" lon="-6.1333520">
    <ele>18.4</ele>
    <time>2025-08-29T13:08:45Z</time>
   </trkpt>
   <trkpt lat="53.4302510" lon="-6.1332880">
    <ele>18.0</ele>
    <time>2025-08-29T13:08:51Z</time>
   </trkpt>
   <trkpt lat="53.4301880" lon="-6.1332930">
    <ele>17.7</ele>
    <time>2025-08-29T13:08:56Z</time>
   </trkpt>
   <trkpt lat="53.4301210" lon="-6.1332580">
    <ele>17.2</ele>
    <time>2025-08-29T13:09:01Z</time>
   </trkpt>
   <trkpt lat="53.4300350" lon="-6.1332120">
    <ele>16.7</ele>
    <time>2025-08-29T13:09:07Z</time>
   </trkpt>
   <trkpt lat="53.4299480" lon="-6.1332030">
    <ele>16.3</ele>
    <time>2025-08-29T13:09:12Z</time>
   </trkpt>
   <trkpt lat="53.4298690" lon="-6.1332080">
    <ele>15.9</ele>
    <time>2025-08-29T13:09:18Z</time>
   </trkpt>
   <trkpt lat="53.4297850" lon="-6.1332100">
    <ele>15.6</ele>
    <time>2025-08-29T13:09:23Z</time>
   </trkpt>
   <trkpt lat="53.4297080" lon="-6.1331920">
    <ele>15.2</ele>
    <time>2025-08-29T13:09:29Z</time>
   </trkpt>
   <trkpt lat="53.4296380" lon="-6.1332160">
    <ele>14.9</ele>
    <time>2025-08-29T13:09:34Z</time>
   </trkpt>
   <trkpt lat="53.4295570" lon="-6.1332600">
    <ele>14.7</ele>
    <time>2025-08-29T13:09:39Z</time>
   </trkpt>
   <trkpt lat="53.4294590" lon="-6.1332320">
    <ele>14.3</ele>
    <time>2025-08-29T13:09:45Z</time>
   </trkpt>
   <trkpt lat="53.4293710" lon="-6.1332550">
    <ele>14.0</ele>
    <time>2025-08-29T13:09:50Z</time>
   </trkpt>
   <trkpt lat="53.4292890" lon="-6.1332770">
    <ele>13.7</ele>
    <time>2025-08-29T13:09:56Z</time>
   </trkpt>
   <trkpt lat="53.4292110" lon="-6.1332780">
    <ele>13.5</ele>
    <time>2025-08-29T13:10:01Z</time>
   </trkpt>
   <trkpt lat="53.4291290" lon="-6.1332860">
    <ele>13.2</ele>
    <time>2025-08-29T13:10:07Z</time>
   </trkpt>
   <trkpt lat="53.4290470" lon="-6.1333340">
    <ele>13.0</ele>
    <time>2025-08-29T13:10:12Z</time>
   </trkpt>
   <trkpt lat="53.4289640" lon="-6.1333890">
    <ele>12.7</ele>
    <time>2025-08-29T13:10:18Z</time>
   </trkpt>
   <trkpt lat="53.4288840" lon="-6.1334020">
    <ele>12.5</ele>
    <time>2025-08-29T13:10:23Z</time>
   </trkpt>
   <trkpt lat="53.4287910" lon="-6.1333990">
    <ele>12.3</ele>
    <time>2025-08-29T13:10:28Z</time>
   </trkpt>
   <trkpt lat="53.4287110" lon="-6.1333840">
    <ele>12.1</ele>
    <time>2025-08-29T13:10:34Z</time>
   </trkpt>
   <trkpt lat="53.4286250" lon="-6.1334150">
    <ele>11.9</ele>
    <time>2025-08-29T13:10:39Z</time>
   </trkpt>
   <trkpt lat="53.4285500" lon="-6.1334390">
    <ele>11.7</ele>
    <time>2025-08-29T13:10:44Z</time>
   </trkpt>
   <trkpt lat="53.4284850" lon="-6.1334700">
    <ele>11.4</ele>
    <time>2025-08-29T13:10:49Z</time>
   </trkpt>
   <trkpt lat="53.4283800" lon="-6.1334990">
    <ele>11.2</ele>
    <time>2025-08-29T13:10:55Z</time>
   </trkpt>
   <trkpt lat="53.4282970" lon="-6.1334990">
    <ele>10.9</ele>
    <time>2025-08-29T13:11:00Z</time>
   </trkpt>
   <trkpt lat="53.4282280" lon="-6.1335100">
    <ele>10.7</ele>
    <time>2025-08-29T13:11:06Z</time>
   </trkpt>
   <trkpt lat="53.4281410" lon="-6.1335340">
    <ele>10.5</ele>
    <time>2025-08-29T13:11:11Z</time>
   </trkpt>
   <trkpt lat="53.4280450" lon="-6.1335030">
    <ele>10.1</ele>
    <time>2025-08-29T13:11:16Z</time>
   </trkpt>
   <trkpt lat="53.4279740" lon="-6.1335390">
    <ele>9.8</ele>
    <time>2025-08-29T13:11:22Z</time>
   </trkpt>
   <trkpt lat="53.4278980" lon="-6.1336070">
    <ele>9.6</ele>
    <time>2025-08-29T13:11:27Z</time>
   </trkpt>
   <trkpt lat="53.4278290" lon="-6.1336520">
    <ele>9.3</ele>
    <time>2025-08-29T13:11:33Z</time>
   </trkpt>
   <trkpt lat="53.4277550" lon="-6.1336390">
    <ele>9.0</ele>
    <time>2025-08-29T13:11:38Z</time>
   </trkpt>
   <trkpt lat="53.4276580" lon="-6.1336320">
    <ele>8.8</ele>
    <time>2025-08-29T13:11:43Z</time>
   </trkpt>
   <trkpt lat="53.4275930" lon="-6.1336520">
    <ele>8.5</ele>
    <time>2025-08-29T13:11:48Z</time>
   </trkpt>
   <trkpt lat="53.4275180" lon="-6.1336800">
    <ele>8.3</ele>
    <time>2025-08-29T13:11:54Z</time>
   </trkpt>
   <trkpt lat="53.4274200" lon="-6.1336850">
    <ele>8.1</ele>
    <time>2025-08-29T13:11:59Z</time>
   </trkpt>
   <trkpt lat="53.4273420" lon="-6.1337120">
    <ele>7.8</ele>
    <time>2025-08-29T13:12:05Z</time>
   </trkpt>
   <trkpt lat="53.4272750" lon="-6.1337470">
    <ele>7.6</ele>
    <time>2025-08-29T13:12:10Z</time>
   </trkpt>
   <trkpt lat="53.4271860" lon="-6.1337700">
    <ele>7.5</ele>
    <time>2025-08-29T13:12:15Z</time>
   </trkpt>
   <trkpt lat="53.4271060" lon="-6.1337640">
    <ele>7.2</ele>
    <time>2025-08-29T13:12:21Z</time>
   </trkpt>
   <trkpt lat="53.4270310" lon="-6.1337910">
    <ele>7.1</ele>
    <time>2025-08-29T13:12:26Z</time>
   </trkpt>
   <trkpt lat="53.4269430" lon="-6.1338170">
    <ele>6.9</ele>
    <time>2025-08-29T13:12:31Z</time>
   </trkpt>
   <trkpt lat="53.4268700" lon="-6.1338030">
    <ele>6.7</ele>
    <time>2025-08-29T13:12:37Z</time>
   </trkpt>
   <trkpt lat="53.4267920" lon="-6.1338370">
    <ele>6.5</ele>
    <time>2025-08-29T13:12:42Z</time>
   </trkpt>
   <trkpt lat="53.4266960" lon="-6.1338190">
    <ele>6.3</ele>
    <time>2025-08-29T13:12:47Z</time>
   </trkpt>
   <trkpt lat="53.4266160" lon="-6.1338210">
    <ele>6.1</ele>
    <time>2025-08-29T13:12:53Z</time>
   </trkpt>
   <trkpt lat="53.4265180" lon="-6.1338630">
    <ele>5.9</ele>
    <time>2025-08-29T13:12:59Z</time>
   </trkpt>
   <trkpt lat="53.4264350" lon="-6.1338720">
    <ele>5.7</ele>
    <time>2025-08-29T13:13:04Z</time>
   </trkpt>
   <trkpt lat="53.4263830" lon="-6.1338590">
    <ele>5.4</ele>
    <time>2025-08-29T13:13:10Z</time>
   </trkpt>
   <trkpt lat="53.4263090" lon="-6.1338760">
    <ele>5.3</ele>
    <time>2025-08-29T13:13:15Z</time>
   </trkpt>
   <trkpt lat="53.4262350" lon="-6.1339010">
    <ele>5.0</ele>
    <time>2025-08-29T13:13:21Z</time>
   </trkpt>
   <trkpt lat="53.4261560" lon="-6.1338850">
    <ele>4.8</ele>
    <time>2025-08-29T13:13:26Z</time>
   </trkpt>
   <trkpt lat="53.4260590" lon="-6.1339010">
    <ele>4.6</ele>
    <time>2025-08-29T13:13:31Z</time>
   </trkpt>
   <trkpt lat="53.4259870" lon="-6.1339450">
    <ele>4.4</ele>
    <time>2025-08-29T13:13:37Z</time>
   </trkpt>
   <trkpt lat="53.4259040" lon="-6.1339880">
    <ele>4.2</ele>
    <time>2025-08-29T13:13:42Z</time>
   </trkpt>
   <trkpt lat="53.4258310" lon="-6.1340280">
    <ele>4.1</ele>
    <time>2025-08-29T13:13:48Z</time>
   </trkpt>
   <trkpt lat="53.4257450" lon="-6.1340270">
    <ele>4.0</ele>
    <time>2025-08-29T13:13:53Z</time>
   </trkpt>
   <trkpt lat="53.4256580" lon="-6.1340580">
    <ele>4.0</ele>
    <time>2025-08-29T13:13:59Z</time>
   </trkpt>
   <trkpt lat="53.4255760" lon="-6.1340930">
    <ele>4.0</ele>
    <time>2025-08-29T13:14:04Z</time>
   </trkpt>
   <trkpt lat="53.4254950" lon="-6.1341070">
    <ele>4.1</ele>
    <time>2025-08-29T13:14:10Z</time>
   </trkpt>
   <trkpt lat="53.4254240" lon="-6.1341260">
    <ele>4.2</ele>
    <time>2025-08-29T13:14:15Z</time>
   </trkpt>
   <trkpt lat="53.4253350" lon="-6.1341350">
    <ele>4.3</ele>
    <time>2025-08-29T13:14:21Z</time>
   </trkpt>
   <trkpt lat="53.4252590" lon="-6.1341540">
    <ele>4.4</ele>
    <time>2025-08-29T13:14:26Z</time>
   </trkpt>
   <trkpt lat="53.4251700" lon="-6.1342020">
    <ele>4.6</ele>
    <time>2025-08-29T13:14:32Z</time>
   </trkpt>
   <trkpt lat="53.4251100" lon="-6.1342430">
    <ele>4.7</ele>
    <time>2025-08-29T13:14:37Z</time>
   </trkpt>
   <trkpt lat="53.4250220" lon="-6.1342700">
    <ele>4.9</ele>
    <time>2025-08-29T13:14:43Z</time>
   </trkpt>
   <trkpt lat="53.4249390" lon="-6.1342820">
    <ele>5.0</ele>
    <time>2025-08-29T13:14:48Z</time>
   </trkpt>
   <trkpt lat="53.4248430" lon="-6.1342670">
    <ele>5.1</ele>
    <time>2025-08-29T13:14:53Z</time>
   </trkpt>
   <trkpt lat="53.4247670" lon="-6.1342820">
    <ele>5.1</ele>
    <time>2025-08-29T13:14:59Z</time>
   </trkpt>
   <trkpt lat="53.4246810" lon="-6.1343140">
    <ele>5.1</ele>
    <time>2025-08-29T13:15:05Z</time>
   </trkpt>
   <trkpt lat="53.4246060" lon="-6.1343400">
    <ele>5.2</ele>
    <time>2025-08-29T13:15:10Z</time>
   </trkpt>
   <trkpt lat="53.4245420" lon="-6.1343580">
    <ele>5.2</ele>
    <time>2025-08-29T13:15:16Z</time>
   </trkpt>
   <trkpt lat="53.4244660" lon="-6.1344110">
    <ele>5.2</ele>
    <time>2025-08-29T13:15:21Z</time>
   </trkpt>
   <trkpt lat="53.4243890" lon="-6.1344460">
    <ele>5.2</ele>
    <time>2025-08-29T13:15:26Z</time>
   </trkpt>
   <trkpt lat="53.4243150" lon="-6.1344800">
    <ele>5.2</ele>
    <time>2025-08-29T13:15:32Z</time>
   </trkpt>
   <trkpt lat="53.4242330" lon="-6.1345050">
    <ele>5.1</ele>
    <time>2025-08-29T13:15:37Z</time>
   </trkpt>
   <trkpt lat="53.4241480" lon="-6.1344960">
    <ele>5.1</ele>
    <time>2025-08-29T13:15:43Z</time>
   </trkpt>
   <trkpt lat="53.4240630" lon="-6.1345110">
    <ele>5.0</ele>
    <time>2025-08-29T13:15:48Z</time>
   </trkpt>
   <trkpt lat="53.4239900" lon="-6.1344900">
    <ele>5.0</ele>
    <time>2025-08-29T13:15:53Z</time>
   </trkpt>
   <trkpt lat="53.4239010" lon="-6.1345240">
    <ele>4.9</ele>
    <time>2025-08-29T13:15:59Z</time>
   </trkpt>
   <trkpt lat="53.4238230" lon="-6.1345650">
    <ele>4.8</ele>
    <time>2025-08-29T13:16:04Z</time>
   </trkpt>
   <trkpt lat="53.4237450" lon="-6.1345700">
    <ele>4.7</ele>
    <time>2025-08-29T13:16:10Z</time>
   </trkpt>
   <trkpt lat="53.4236690" lon="-6.1346280">
    <ele>4.5</ele>
    <time>2025-08-29T13:16:15Z</time>
   </trkpt>
   <trkpt lat="53.4236220" lon="-6.1346580">
    <ele>4.4</ele>
    <time>2025-08-29T13:16:20Z</time>
   </trkpt>
   <trkpt lat="53.4235410" lon="-6.1346870">
    <ele>4.3</ele>
    <time>2025-08-29T13:16:26Z</time>
   </trkpt>
   <trkpt lat="53.4234590" lon="-6.1346890">
    <ele>4.2</ele>
    <time>2025-08-29T13:16:31Z</time>
   </trkpt>
   <trkpt lat="53.4233900" lon="-6.1347270">
    <ele>4.2</ele>
    <time>2025-08-29T13:16:36Z</time>
   </trkpt>
   <trkpt lat="53.4233520" lon="-6.1347910">
    <ele>4.1</ele>
    <time>2025-08-29T13:16:41Z</time>
   </trkpt>
   <trkpt lat="53.4233500" lon="-6.1348700">
    <ele>4.1</ele>
    <time>2025-08-29T13:16:47Z</time>
   </trkpt>
   <trkpt lat="53.4232890" lon="-6.1349070">
    <ele>4.0</ele>
    <time>2025-08-29T13:16:53Z</time>
   </trkpt>
   <trkpt lat="53.4231990" lon="-6.1348910">
    <ele>4.0</ele>
    <time>2025-08-29T13:16:59Z</time>
   </trkpt>
   <trkpt lat="53.4231040" lon="-6.1348940">
    <ele>4.0</ele>
    <time>2025-08-29T13:17:04Z</time>
   </trkpt>
   <trkpt lat="53.4230240" lon="-6.1348780">
    <ele>3.9</ele>
    <time>2025-08-29T13:17:10Z</time>
   </trkpt>
   <trkpt lat="53.4229420" lon="-6.1348810">
    <ele>3.9</ele>
    <time>2025-08-29T13:17:15Z</time>
   </trkpt>
   <trkpt lat="53.4228580" lon="-6.1348900">
    <ele>3.9</ele>
    <time>2025-08-29T13:17:20Z</time>
   </trkpt>
   <trkpt lat="53.4228070" lon="-6.1348310">
    <ele>3.9</ele>
    <time>2025-08-29T13:17:25Z</time>
   </trkpt>
   <trkpt lat="53.4227380" lon="-6.1347890">
    <ele>3.9</ele>
    <time>2025-08-29T13:17:31Z</time>
   </trkpt>
   <trkpt lat="53.4226560" lon="-6.1347780">
    <ele>3.9</ele>
    <time>2025-08-29T13:17:36Z</time>
   </trkpt>
   <trkpt lat="53.4226170" lon="-6.1347400">
    <ele>3.9</ele>
    <time>2025-08-29T13:18:35Z</time>
   </trkpt>
   <trkpt lat="53.4225100" lon="-6.1348380">
    <ele>4.0</ele>
    <time>2025-08-29T13:18:40Z</time>
   </trkpt>
   <trkpt lat="53.4224310" lon="-6.1349500">
    <ele>4.0</ele>
    <time>2025-08-29T13:18:45Z</time>
   </trkpt>
   <trkpt lat="53.4223770" lon="-6.1350400">
    <ele>4.0</ele>
    <time>2025-08-29T13:18:51Z</time>
   </trkpt>
   <trkpt lat="53.4223150" lon="-6.1351340">
    <ele>4.0</ele>
    <time>2025-08-29T13:18:56Z</time>
   </trkpt>
   <trkpt lat="53.4222490" lon="-6.1352260">
    <ele>4.0</ele>
    <time>2025-08-29T13:19:01Z</time>
   </trkpt>
   <trkpt lat="53.4221840" lon="-6.1353190">
    <ele>4.0</ele>
    <time>2025-08-29T13:19:07Z</time>
   </trkpt>
   <trkpt lat="53.4221350" lon="-6.1353910">
    <ele>4.0</ele>
    <time>2025-08-29T13:19:12Z</time>
   </trkpt>
   <trkpt lat="53.4220810" lon="-6.1354930">
    <ele>4.0</ele>
    <time>2025-08-29T13:19:17Z</time>
   </trkpt>
   <trkpt lat="53.4220180" lon="-6.1355940">
    <ele>4.1</ele>
    <time>2025-08-29T13:19:23Z</time>
   </trkpt>
   <trkpt lat="53.4219670" lon="-6.1356810">
    <ele>4.1</ele>
    <time>2025-08-29T13:19:28Z</time>
   </trkpt>
   <trkpt lat="53.4219030" lon="-6.1358070">
    <ele>4.1</ele>
    <time>2025-08-29T13:19:33Z</time>
   </trkpt>
   <trkpt lat="53.4218410" lon="-6.1358960">
    <ele>4.1</ele>
    <time>2025-08-29T13:19:39Z</time>
   </trkpt>
   <trkpt lat="53.4217690" lon="-6.1359600">
    <ele>4.1</ele>
    <time>2025-08-29T13:19:44Z</time>
   </trkpt>
   <trkpt lat="53.4217210" lon="-6.1360360">
    <ele>4.0</ele>
    <time>2025-08-29T13:19:50Z</time>
   </trkpt>
   <trkpt lat="53.4216770" lon="-6.1361300">
    <ele>4.0</ele>
    <time>2025-08-29T13:19:55Z</time>
   </trkpt>
   <trkpt lat="53.4216230" lon="-6.1362230">
    <ele>4.0</ele>
    <time>2025-08-29T13:20:00Z</time>
   </trkpt>
   <trkpt lat="53.4215830" lon="-6.1363470">
    <ele>4.0</ele>
    <time>2025-08-29T13:20:06Z</time>
   </trkpt>
   <trkpt lat="53.4215290" lon="-6.1364660">
    <ele>4.0</ele>
    <time>2025-08-29T13:20:11Z</time>
   </trkpt>
   <trkpt lat="53.4214780" lon="-6.1365600">
    <ele>4.1</ele>
    <time>2025-08-29T13:20:17Z</time>
   </trkpt>
   <trkpt lat="53.4214330" lon="-6.1366440">
    <ele>4.2</ele>
    <time>2025-08-29T13:20:22Z</time>
   </trkpt>
   <trkpt lat="53.4213780" lon="-6.1367400">
    <ele>4.3</ele>
    <time>2025-08-29T13:20:27Z</time>
   </trkpt>
   <trkpt lat="53.4213140" lon="-6.1368080">
    <ele>4.4</ele>
    <time>2025-08-29T13:20:32Z</time>
   </trkpt>
   <trkpt lat="53.4212710" lon="-6.1368450">
    <ele>4.6</ele>
    <time>2025-08-29T13:20:38Z</time>
   </trkpt>
   <trkpt lat="53.4212050" lon="-6.1369260">
    <ele>4.7</ele>
    <time>2025-08-29T13:20:43Z</time>
   </trkpt>
   <trkpt lat="53.4211220" lon="-6.1369880">
    <ele>4.9</ele>
    <time>2025-08-29T13:20:49Z</time>
   </trkpt>
   <trkpt lat="53.4210530" lon="-6.1370380">
    <ele>5.0</ele>
    <time>2025-08-29T13:20:54Z</time>
   </trkpt>
   <trkpt lat="53.4209930" lon="-6.1371410">
    <ele>5.1</ele>
    <time>2025-08-29T13:20:59Z</time>
   </trkpt>
   <trkpt lat="53.4209330" lon="-6.1372630">
    <ele>5.2</ele>
    <time>2025-08-29T13:21:05Z</time>
   </trkpt>
   <trkpt lat="53.4208930" lon="-6.1373830">
    <ele>5.2</ele>
    <time>2025-08-29T13:21:10Z</time>
   </trkpt>
   <trkpt lat="53.4208640" lon="-6.1374780">
    <ele>5.1</ele>
    <time>2025-08-29T13:21:16Z</time>
   </trkpt>
   <trkpt lat="53.4207970" lon="-6.1375720">
    <ele>5.0</ele>
    <time>2025-08-29T13:21:22Z</time>
   </trkpt>
   <trkpt lat="53.4207380" lon="-6.1375680">
    <ele>4.9</ele>
    <time>2025-08-29T13:21:28Z</time>
   </trkpt>
   <trkpt lat="53.4207070" lon="-6.1376810">
    <ele>4.8</ele>
    <time>2025-08-29T13:21:33Z</time>
   </trkpt>
   <trkpt lat="53.4206670" lon="-6.1377900">
    <ele>4.5</ele>
    <time>2025-08-29T13:21:39Z</time>
   </trkpt>
   <trkpt lat="53.4206190" lon="-6.1378770">
    <ele>4.3</ele>
    <time>2025-08-29T13:21:44Z</time>
   </trkpt>
   <trkpt lat="53.4205730" lon="-6.1379880">
    <ele>4.1</ele>
    <time>2025-08-29T13:21:49Z</time>
   </trkpt>
   <trkpt lat="53.4205250" lon="-6.1380800">
    <ele>3.8</ele>
    <time>2025-08-29T13:21:55Z</time>
   </trkpt>
   <trkpt lat="53.4204760" lon="-6.1381910">
    <ele>3.6</ele>
    <time>2025-08-29T13:22:00Z</time>
   </trkpt>
   <trkpt lat="53.4204120" lon="-6.1382880">
    <ele>3.4</ele>
    <time>2025-08-29T13:22:05Z</time>
   </trkpt>
   <trkpt lat="53.4203520" lon="-6.1383650">
    <ele>3.3</ele>
    <time>2025-08-29T13:22:10Z</time>
   </trkpt>
   <trkpt lat="53.4203120" lon="-6.1384750">
    <ele>3.2</ele>
    <time>2025-08-29T13:22:16Z</time>
   </trkpt>
   <trkpt lat="53.4202570" lon="-6.1385730">
    <ele>3.2</ele>
    <time>2025-08-29T13:22:21Z</time>
   </trkpt>
   <trkpt lat="53.4201840" lon="-6.1386600">
    <ele>3.2</ele>
    <time>2025-08-29T13:22:27Z</time>
   </trkpt>
   <trkpt lat="53.4201230" lon="-6.1387510">
    <ele>3.1</ele>
    <time>2025-08-29T13:22:32Z</time>
   </trkpt>
   <trkpt lat="53.4200660" lon="-6.1388460">
    <ele>3.1</ele>
    <time>2025-08-29T13:22:37Z</time>
   </trkpt>
   <trkpt lat="53.4200210" lon="-6.1389510">
    <ele>3.1</ele>
    <time>2025-08-29T13:22:43Z</time>
   </trkpt>
   <trkpt lat="53.4199710" lon="-6.1390230">
    <ele>3.0</ele>
    <time>2025-08-29T13:22:48Z</time>
   </trkpt>
   <trkpt lat="53.4198730" lon="-6.1390540">
    <ele>2.9</ele>
    <time>2025-08-29T13:22:53Z</time>
   </trkpt>
   <trkpt lat="53.4197870" lon="-6.1390910">
    <ele>2.8</ele>
    <time>2025-08-29T13:22:59Z</time>
   </trkpt>
   <trkpt lat="53.4197210" lon="-6.1391660">
    <ele>2.7</ele>
    <time>2025-08-29T13:23:04Z</time>
   </trkpt>
   <trkpt lat="53.4196790" lon="-6.1392720">
    <ele>2.5</ele>
    <time>2025-08-29T13:23:10Z</time>
   </trkpt>
   <trkpt lat="53.4196380" lon="-6.1393880">
    <ele>2.4</ele>
    <time>2025-08-29T13:23:15Z</time>
   </trkpt>
   <trkpt lat="53.4195750" lon="-6.1394820">
    <ele>2.3</ele>
    <time>2025-08-29T13:23:20Z</time>
   </trkpt>
   <trkpt lat="53.4195160" lon="-6.1395750">
    <ele>2.3</ele>
    <time>2025-08-29T13:23:26Z</time>
   </trkpt>
   <trkpt lat="53.4194560" lon="-6.1396650">
    <ele>2.2</ele>
    <time>2025-08-29T13:23:31Z</time>
   </trkpt>
   <trkpt lat="53.4194130" lon="-6.1397610">
    <ele>2.2</ele>
    <time>2025-08-29T13:23:37Z</time>
   </trkpt>
   <trkpt lat="53.4193510" lon="-6.1398730">
    <ele>2.1</ele>
    <time>2025-08-29T13:23:42Z</time>
   </trkpt>
   <trkpt lat="53.4193020" lon="-6.1399710">
    <ele>2.1</ele>
    <time>2025-08-29T13:23:48Z</time>
   </trkpt>
   <trkpt lat="53.4192350" lon="-6.1400590">
    <ele>2.1</ele>
    <time>2025-08-29T13:23:53Z</time>
   </trkpt>
   <trkpt lat="53.4191880" lon="-6.1401360">
    <ele>2.2</ele>
    <time>2025-08-29T13:23:58Z</time>
   </trkpt>
   <trkpt lat="53.4191190" lon="-6.1402370">
    <ele>2.2</ele>
    <time>2025-08-29T13:24:04Z</time>
   </trkpt>
   <trkpt lat="53.4190690" lon="-6.1403490">
    <ele>2.3</ele>
    <time>2025-08-29T13:24:10Z</time>
   </trkpt>
   <trkpt lat="53.4190220" lon="-6.1404330">
    <ele>2.3</ele>
    <time>2025-08-29T13:24:15Z</time>
   </trkpt>
   <trkpt lat="53.4189660" lon="-6.1405370">
    <ele>2.4</ele>
    <time>2025-08-29T13:24:21Z</time>
   </trkpt>
   <trkpt lat="53.4189210" lon="-6.1406310">
    <ele>2.5</ele>
    <time>2025-08-29T13:24:26Z</time>
   </trkpt>
   <trkpt lat="53.4188470" lon="-6.1407240">
    <ele>2.6</ele>
    <time>2025-08-29T13:24:32Z</time>
   </trkpt>
   <trkpt lat="53.4188020" lon="-6.1408150">
    <ele>2.6</ele>
    <time>2025-08-29T13:24:37Z</time>
   </trkpt>
   <trkpt lat="53.4187410" lon="-6.1409070">
    <ele>2.6</ele>
    <time>2025-08-29T13:24:42Z</time>
   </trkpt>
   <trkpt lat="53.4186950" lon="-6.1410040">
    <ele>2.5</ele>
    <time>2025-08-29T13:24:48Z</time>
   </trkpt>
   <trkpt lat="53.4186320" lon="-6.1411090">
    <ele>2.4</ele>
    <time>2025-08-29T13:24:53Z</time>
   </trkpt>
   <trkpt lat="53.4185820" lon="-6.1412210">
    <ele>2.3</ele>
    <time>2025-08-29T13:24:59Z</time>
   </trkpt>
   <trkpt lat="53.4185280" lon="-6.1413100">
    <ele>2.1</ele>
    <time>2025-08-29T13:25:04Z</time>
   </trkpt>
   <trkpt lat="53.4185520" lon="-6.1414140">
    <ele>1.9</ele>
    <time>2025-08-29T13:25:09Z</time>
   </trkpt>
   <trkpt lat="53.4185700" lon="-6.1414980">
    <ele>1.8</ele>
    <time>2025-08-29T13:25:14Z</time>
   </trkpt>
   <trkpt lat="53.4185120" lon="-6.1415230">
    <ele>1.6</ele>
    <time>2025-08-29T13:25:20Z</time>
   </trkpt>
   <trkpt lat="53.4184590" lon="-6.1416080">
    <ele>1.4</ele>
    <time>2025-08-29T13:25:25Z</time>
   </trkpt>
   <trkpt lat="53.4183890" lon="-6.1417010">
    <ele>1.2</ele>
    <time>2025-08-29T13:25:30Z</time>
   </trkpt>
   <trkpt lat="53.4183240" lon="-6.1417930">
    <ele>1.1</ele>
    <time>2025-08-29T13:25:36Z</time>
   </trkpt>
   <trkpt lat="53.4182840" lon="-6.1418950">
    <ele>1.1</ele>
    <time>2025-08-29T13:25:41Z</time>
   </trkpt>
   <trkpt lat="53.4182210" lon="-6.1419760">
    <ele>1.1</ele>
    <time>2025-08-29T13:25:46Z</time>
   </trkpt>
   <trkpt lat="53.4181610" lon="-6.1420590">
    <ele>1.2</ele>
    <time>2025-08-29T13:25:52Z</time>
   </trkpt>
   <trkpt lat="53.4180910" lon="-6.1421720">
    <ele>1.2</ele>
    <time>2025-08-29T13:25:57Z</time>
   </trkpt>
   <trkpt lat="53.4180460" lon="-6.1422750">
    <ele>1.4</ele>
    <time>2025-08-29T13:26:03Z</time>
   </trkpt>
   <trkpt lat="53.4179980" lon="-6.1423650">
    <ele>1.5</ele>
    <time>2025-08-29T13:26:08Z</time>
   </trkpt>
   <trkpt lat="53.4179410" lon="-6.1424830">
    <ele>1.7</ele>
    <time>2025-08-29T13:26:13Z</time>
   </trkpt>
   <trkpt lat="53.4178930" lon="-6.1425720">
    <ele>1.8</ele>
    <time>2025-08-29T13:26:19Z</time>
   </trkpt>
   <trkpt lat="53.4178420" lon="-6.1426620">
    <ele>1.9</ele>
    <time>2025-08-29T13:26:24Z</time>
   </trkpt>
   <trkpt lat="53.4177750" lon="-6.1427460">
    <ele>2.1</ele>
    <time>2025-08-29T13:26:30Z</time>
   </trkpt>
   <trkpt lat="53.4176920" lon="-6.1427650">
    <ele>2.3</ele>
    <time>2025-08-29T13:26:35Z</time>
   </trkpt>
   <trkpt lat="53.4175990" lon="-6.1427570">
    <ele>2.4</ele>
    <time>2025-08-29T13:26:40Z</time>
   </trkpt>
   <trkpt lat="53.4175330" lon="-6.1427450">
    <ele>2.4</ele>
    <time>2025-08-29T13:26:46Z</time>
   </trkpt>
   <trkpt lat="53.4174660" lon="-6.1427030">
    <ele>2.5</ele>
    <time>2025-08-29T13:26:51Z</time>
   </trkpt>
   <trkpt lat="53.4174090" lon="-6.1426150">
    <ele>2.4</ele>
    <time>2025-08-29T13:26:57Z</time>
   </trkpt>
   <trkpt lat="53.4173600" lon="-6.1425200">
    <ele>2.4</ele>
    <time>2025-08-29T13:27:02Z</time>
   </trkpt>
   <trkpt lat="53.4173090" lon="-6.1424120">
    <ele>2.3</ele>
    <time>2025-08-29T13:27:07Z</time>
   </trkpt>
   <trkpt lat="53.4172830" lon="-6.1422990">
    <ele>2.2</ele>
    <time>2025-08-29T13:27:13Z</time>
   </trkpt>
   <trkpt lat="53.4172240" lon="-6.1421900">
    <ele>2.1</ele>
    <time>2025-08-29T13:27:18Z</time>
   </trkpt>
   <trkpt lat="53.4171370" lon="-6.1421440">
    <ele>2.1</ele>
    <time>2025-08-29T13:27:23Z</time>
   </trkpt>
   <trkpt lat="53.4170600" lon="-6.1422020">
    <ele>2.2</ele>
    <time>2025-08-29T13:27:28Z</time>
   </trkpt>
   <trkpt lat="53.4169840" lon="-6.1422650">
    <ele>2.4</ele>
    <time>2025-08-29T13:27:34Z</time>
   </trkpt>
   <trkpt lat="53.4169060" lon="-6.1422930">
    <ele>2.7</ele>
    <time>2025-08-29T13:27:39Z</time>
   </trkpt>
   <trkpt lat="53.4168460" lon="-6.1423500">
    <ele>3.0</ele>
    <time>2025-08-29T13:27:44Z</time>
   </trkpt>
   <trkpt lat="53.4168060" lon="-6.1423930">
    <ele>3.2</ele>
    <time>2025-08-29T13:27:49Z</time>
   </trkpt>
   <trkpt lat="53.4167600" lon="-6.1423670">
    <ele>3.4</ele>
    <time>2025-08-29T13:28:09Z</time>
   </trkpt>
   <trkpt lat="53.4166690" lon="-6.1422590">
    <ele>3.5</ele>
    <time>2025-08-29T13:28:14Z</time>
   </trkpt>
   <trkpt lat="53.4166010" lon="-6.1421830">
    <ele>3.7</ele>
    <time>2025-08-29T13:28:20Z</time>
   </trkpt>
   <trkpt lat="53.4165520" lon="-6.1421040">
    <ele>3.7</ele>
    <time>2025-08-29T13:28:25Z</time>
   </trkpt>
   <trkpt lat="53.4164970" lon="-6.1419820">
    <ele>3.8</ele>
    <time>2025-08-29T13:28:30Z</time>
   </trkpt>
   <trkpt lat="53.4164500" lon="-6.1418770">
    <ele>3.9</ele>
    <time>2025-08-29T13:28:36Z</time>
   </trkpt>
   <trkpt lat="53.4164100" lon="-6.1417810">
    <ele>4.1</ele>
    <time>2025-08-29T13:28:41Z</time>
   </trkpt>
   <trkpt lat="53.4163360" lon="-6.1417010">
    <ele>4.3</ele>
    <time>2025-08-29T13:28:46Z</time>
   </trkpt>
   <trkpt lat="53.4162650" lon="-6.1416420">
    <ele>4.6</ele>
    <time>2025-08-29T13:28:52Z</time>
   </trkpt>
   <trkpt lat="53.4162080" lon="-6.1415550">
    <ele>4.8</ele>
    <time>2025-08-29T13:28:57Z</time>
   </trkpt>
   <trkpt lat="53.4161430" lon="-6.1414530">
    <ele>5.1</ele>
    <time>2025-08-29T13:29:02Z</time>
   </trkpt>
   <trkpt lat="53.4160990" lon="-6.1413540">
    <ele>5.3</ele>
    <time>2025-08-29T13:29:08Z</time>
   </trkpt>
   <trkpt lat="53.4160490" lon="-6.1412600">
    <ele>5.4</ele>
    <time>2025-08-29T13:29:13Z</time>
   </trkpt>
   <trkpt lat="53.4159870" lon="-6.1411380">
    <ele>5.4</ele>
    <time>2025-08-29T13:29:18Z</time>
   </trkpt>
   <trkpt lat="53.4159340" lon="-6.1410590">
    <ele>5.4</ele>
    <time>2025-08-29T13:29:23Z</time>
   </trkpt>
   <trkpt lat="53.4158720" lon="-6.1409930">
    <ele>5.3</ele>
    <time>2025-08-29T13:29:29Z</time>
   </trkpt>
   <trkpt lat="53.4158060" lon="-6.1409290">
    <ele>5.3</ele>
    <time>2025-08-29T13:29:34Z</time>
   </trkpt>
   <trkpt lat="53.4157460" lon="-6.1408410">
    <ele>5.2</ele>
    <time>2025-08-29T13:29:40Z</time>
   </trkpt>
   <trkpt lat="53.4156860" lon="-6.1407660">
    <ele>5.2</ele>
    <time>2025-08-29T13:29:45Z</time>
   </trkpt>
   <trkpt lat="53.4156220" lon="-6.1406780">
    <ele>5.1</ele>
    <time>2025-08-29T13:29:50Z</time>
   </trkpt>
   <trkpt lat="53.4155540" lon="-6.1406010">
    <ele>5.1</ele>
    <time>2025-08-29T13:29:56Z</time>
   </trkpt>
   <trkpt lat="53.4154970" lon="-6.1405260">
    <ele>5.1</ele>
    <time>2025-08-29T13:30:01Z</time>
   </trkpt>
   <trkpt lat="53.4154320" lon="-6.1404520">
    <ele>5.0</ele>
    <time>2025-08-29T13:30:06Z</time>
   </trkpt>
   <trkpt lat="53.4153680" lon="-6.1403730">
    <ele>5.0</ele>
    <time>2025-08-29T13:30:12Z</time>
   </trkpt>
   <trkpt lat="53.4152920" lon="-6.1402800">
    <ele>5.0</ele>
    <time>2025-08-29T13:30:17Z</time>
   </trkpt>
   <trkpt lat="53.4152260" lon="-6.1402110">
    <ele>4.9</ele>
    <time>2025-08-29T13:30:23Z</time>
   </trkpt>
   <trkpt lat="53.4151670" lon="-6.1401430">
    <ele>4.9</ele>
    <time>2025-08-29T13:30:28Z</time>
   </trkpt>
   <trkpt lat="53.4150930" lon="-6.1400780">
    <ele>4.9</ele>
    <time>2025-08-29T13:30:33Z</time>
   </trkpt>
   <trkpt lat="53.4150240" lon="-6.1399960">
    <ele>4.9</ele>
    <time>2025-08-29T13:30:39Z</time>
   </trkpt>
   <trkpt lat="53.4149600" lon="-6.1399510">
    <ele>5.0</ele>
    <time>2025-08-29T13:30:44Z</time>
   </trkpt>
   <trkpt lat="53.4148920" lon="-6.1399000">
    <ele>5.0</ele>
    <time>2025-08-29T13:30:50Z</time>
   </trkpt>
   <trkpt lat="53.4148330" lon="-6.1398140">
    <ele>5.1</ele>
    <time>2025-08-29T13:30:55Z</time>
   </trkpt>
   <trkpt lat="53.4147570" lon="-6.1397320">
    <ele>5.1</ele>
    <time>2025-08-29T13:31:00Z</time>
   </trkpt>
   <trkpt lat="53.4146840" lon="-6.1396950">
    <ele>5.1</ele>
    <time>2025-08-29T13:31:06Z</time>
   </trkpt>
   <trkpt lat="53.4146080" lon="-6.1396260">
    <ele>5.2</ele>
    <time>2025-08-29T13:31:11Z</time>
   </trkpt>
   <trkpt lat="53.4145200" lon="-6.1395530">
    <ele>5.2</ele>
    <time>2025-08-29T13:31:17Z</time>
   </trkpt>
   <trkpt lat="53.4144740" lon="-6.1394960">
    <ele>5.2</ele>
    <time>2025-08-29T13:31:22Z</time>
   </trkpt>
   <trkpt lat="53.4143970" lon="-6.1394380">
    <ele>5.2</ele>
    <time>2025-08-29T13:31:27Z</time>
   </trkpt>
   <trkpt lat="53.4143290" lon="-6.1393750">
    <ele>5.2</ele>
    <time>2025-08-29T13:31:33Z</time>
   </trkpt>
   <trkpt lat="53.4142760" lon="-6.1393150">
    <ele>5.2</ele>
    <time>2025-08-29T13:31:38Z</time>
   </trkpt>
   <trkpt lat="53.4142010" lon="-6.1392480">
    <ele>5.1</ele>
    <time>2025-08-29T13:31:43Z</time>
   </trkpt>
   <trkpt lat="53.4141350" lon="-6.1392150">
    <ele>5.1</ele>
    <time>2025-08-29T13:31:48Z</time>
   </trkpt>
   <trkpt lat="53.4140520" lon="-6.1391630">
    <ele>5.1</ele>
    <time>2025-08-29T13:31:54Z</time>
   </trkpt>
   <trkpt lat="53.4139720" lon="-6.1390840">
    <ele>5.1</ele>
    <time>2025-08-29T13:32:00Z</time>
   </trkpt>
   <trkpt lat="53.4139160" lon="-6.1390510">
    <ele>5.2</ele>
    <time>2025-08-29T13:32:05Z</time>
   </trkpt>
   <trkpt lat="53.4138280" lon="-6.1390120">
    <ele>5.2</ele>
    <time>2025-08-29T13:32:10Z</time>
   </trkpt>
   <trkpt lat="53.4137490" lon="-6.1389390">
    <ele>5.3</ele>
    <time>2025-08-29T13:32:16Z</time>
   </trkpt>
   <trkpt lat="53.4136800" lon="-6.1388680">
    <ele>5.3</ele>
    <time>2025-08-29T13:32:21Z</time>
   </trkpt>
   <trkpt lat="53.4135900" lon="-6.1387840">
    <ele>5.3</ele>
    <time>2025-08-29T13:32:26Z</time>
   </trkpt>
   <trkpt lat="53.4135360" lon="-6.1387450">
    <ele>5.3</ele>
    <time>2025-08-29T13:32:32Z</time>
   </trkpt>
   <trkpt lat="53.4134620" lon="-6.1386600">
    <ele>5.3</ele>
    <time>2025-08-29T13:32:37Z</time>
   </trkpt>
   <trkpt lat="53.4133890" lon="-6.1385690">
    <ele>5.3</ele>
    <time>2025-08-29T13:32:43Z</time>
   </trkpt>
   <trkpt lat="53.4133330" lon="-6.1384880">
    <ele>5.3</ele>
    <time>2025-08-29T13:32:48Z</time>
   </trkpt>
   <trkpt lat="53.4132760" lon="-6.1383780">
    <ele>5.2</ele>
    <time>2025-08-29T13:32:54Z</time>
   </trkpt>
   <trkpt lat="53.4132140" lon="-6.1383160">
    <ele>5.2</ele>
    <time>2025-08-29T13:32:59Z</time>
   </trkpt>
   <trkpt lat="53.4131550" lon="-6.1382040">
    <ele>5.1</ele>
    <time>2025-08-29T13:33:04Z</time>
   </trkpt>
   <trkpt lat="53.4130970" lon="-6.1381070">
    <ele>4.9</ele>
    <time>2025-08-29T13:33:10Z</time>
   </trkpt>
   <trkpt lat="53.4130360" lon="-6.1380250">
    <ele>4.8</ele>
    <time>2025-08-29T13:33:15Z</time>
   </trkpt>
   <trkpt lat="53.4129660" lon="-6.1379360">
    <ele>4.6</ele>
    <time>2025-08-29T13:33:20Z</time>
   </trkpt>
   <trkpt lat="53.4129000" lon="-6.1378660">
    <ele>4.4</ele>
    <time>2025-08-29T13:33:26Z</time>
   </trkpt>
   <trkpt lat="53.4128400" lon="-6.1378140">
    <ele>4.2</ele>
    <time>2025-08-29T13:33:31Z</time>
   </trkpt>
   <trkpt lat="53.4127700" lon="-6.1377550">
    <ele>4.0</ele>
    <time>2025-08-29T13:33:36Z</time>
   </trkpt>
   <trkpt lat="53.4127040" lon="-6.1376900">
    <ele>3.8</ele>
    <time>2025-08-29T13:33:42Z</time>
   </trkpt>
   <trkpt lat="53.4126420" lon="-6.1376480">
    <ele>3.6</ele>
    <time>2025-08-29T13:33:47Z</time>
   </trkpt>
   <trkpt lat="53.4125660" lon="-6.1375730">
    <ele>3.5</ele>
    <time>2025-08-29T13:33:52Z</time>
   </trkpt>
   <trkpt lat="53.4124780" lon="-6.1375010">
    <ele>3.2</ele>
    <time>2025-08-29T13:33:57Z</time>
   </trkpt>
   <trkpt lat="53.4124110" lon="-6.1374670">
    <ele>3.1</ele>
    <time>2025-08-29T13:34:03Z</time>
   </trkpt>
   <trkpt lat="53.4123290" lon="-6.1374380">
    <ele>3.0</ele>
    <time>2025-08-29T13:34:08Z</time>
   </trkpt>
   <trkpt lat="53.4122390" lon="-6.1374260">
    <ele>3.0</ele>
    <time>2025-08-29T13:34:13Z</time>
   </trkpt>
   <trkpt lat="53.4121720" lon="-6.1374280">
    <ele>3.0</ele>
    <time>2025-08-29T13:34:19Z</time>
   </trkpt>
   <trkpt lat="53.4120950" lon="-6.1374110">
    <ele>3.1</ele>
    <time>2025-08-29T13:34:24Z</time>
   </trkpt>
   <trkpt lat="53.4120030" lon="-6.1373750">
    <ele>3.1</ele>
    <time>2025-08-29T13:34:29Z</time>
   </trkpt>
   <trkpt lat="53.4119280" lon="-6.1373810">
    <ele>3.2</ele>
    <time>2025-08-29T13:34:35Z</time>
   </trkpt>
   <trkpt lat="53.4118320" lon="-6.1373500">
    <ele>3.2</ele>
    <time>2025-08-29T13:34:40Z</time>
   </trkpt>
   <trkpt lat="53.4117670" lon="-6.1373590">
    <ele>3.3</ele>
    <time>2025-08-29T13:34:45Z</time>
   </trkpt>
   <trkpt lat="53.4116870" lon="-6.1373900">
    <ele>3.4</ele>
    <time>2025-08-29T13:34:51Z</time>
   </trkpt>
   <trkpt lat="53.4116120" lon="-6.1373970">
    <ele>3.6</ele>
    <time>2025-08-29T13:34:57Z</time>
   </trkpt>
   <trkpt lat="53.4115480" lon="-6.1373990">
    <ele>3.7</ele>
    <time>2025-08-29T13:35:02Z</time>
   </trkpt>
   <trkpt lat="53.4114640" lon="-6.1373750">
    <ele>3.8</ele>
    <time>2025-08-29T13:35:07Z</time>
   </trkpt>
   <trkpt lat="53.4113950" lon="-6.1373720">
    <ele>3.8</ele>
    <time>2025-08-29T13:35:12Z</time>
   </trkpt>
   <trkpt lat="53.4113050" lon="-6.1373770">
    <ele>4.0</ele>
    <time>2025-08-29T13:35:18Z</time>
   </trkpt>
   <trkpt lat="53.4112170" lon="-6.1373420">
    <ele>4.0</ele>
    <time>2025-08-29T13:35:23Z</time>
   </trkpt>
   <trkpt lat="53.4111460" lon="-6.1373370">
    <ele>4.1</ele>
    <time>2025-08-29T13:35:28Z</time>
   </trkpt>
   <trkpt lat="53.4110690" lon="-6.1373400">
    <ele>4.2</ele>
    <time>2025-08-29T13:35:34Z</time>
   </trkpt>
   <trkpt lat="53.4109910" lon="-6.1373100">
    <ele>4.3</ele>
    <time>2025-08-29T13:35:39Z</time>
   </trkpt>
   <trkpt lat="53.4109020" lon="-6.1372770">
    <ele>4.3</ele>
    <time>2025-08-29T13:35:44Z</time>
   </trkpt>
   <trkpt lat="53.4108130" lon="-6.1372510">
    <ele>4.2</ele>
    <time>2025-08-29T13:35:49Z</time>
   </trkpt>
   <trkpt lat="53.4107530" lon="-6.1372510">
    <ele>4.2</ele>
    <time>2025-08-29T13:35:55Z</time>
   </trkpt>
   <trkpt lat="53.4106780" lon="-6.1372320">
    <ele>4.2</ele>
    <time>2025-08-29T13:36:00Z</time>
   </trkpt>
   <trkpt lat="53.4105920" lon="-6.1372010">
    <ele>4.1</ele>
    <time>2025-08-29T13:36:05Z</time>
   </trkpt>
   <trkpt lat="53.4105300" lon="-6.1372000">
    <ele>4.0</ele>
    <time>2025-08-29T13:36:11Z</time>
   </trkpt>
   <trkpt lat="53.4104410" lon="-6.1371890">
    <ele>3.9</ele>
    <time>2025-08-29T13:36:16Z</time>
   </trkpt>
   <trkpt lat="53.4103750" lon="-6.1371570">
    <ele>3.8</ele>
    <time>2025-08-29T13:36:21Z</time>
   </trkpt>
   <trkpt lat="53.4103030" lon="-6.1371110">
    <ele>3.7</ele>
    <time>2025-08-29T13:36:27Z</time>
   </trkpt>
   <trkpt lat="53.4102060" lon="-6.1370580">
    <ele>3.5</ele>
    <time>2025-08-29T13:36:32Z</time>
   </trkpt>
   <trkpt lat="53.4101200" lon="-6.1370240">
    <ele>3.2</ele>
    <time>2025-08-29T13:36:38Z</time>
   </trkpt>
   <trkpt lat="53.4100410" lon="-6.1369850">
    <ele>3.0</ele>
    <time>2025-08-29T13:36:43Z</time>
   </trkpt>
   <trkpt lat="53.4099720" lon="-6.1369470">
    <ele>2.9</ele>
    <time>2025-08-29T13:36:48Z</time>
   </trkpt>
   <trkpt lat="53.4099140" lon="-6.1368950">
    <ele>2.7</ele>
    <time>2025-08-29T13:36:53Z</time>
   </trkpt>
   <trkpt lat="53.4098300" lon="-6.1368380">
    <ele>2.5</ele>
    <time>2025-08-29T13:36:59Z</time>
   </trkpt>
   <trkpt lat="53.4097550" lon="-6.1367660">
    <ele>2.3</ele>
    <time>2025-08-29T13:37:04Z</time>
   </trkpt>
   <trkpt lat="53.4096950" lon="-6.1367030">
    <ele>2.2</ele>
    <time>2025-08-29T13:37:10Z</time>
   </trkpt>
   <trkpt lat="53.4096170" lon="-6.1366850">
    <ele>2.1</ele>
    <time>2025-08-29T13:37:15Z</time>
   </trkpt>
   <trkpt lat="53.4095220" lon="-6.1367250">
    <ele>2.1</ele>
    <time>2025-08-29T13:37:20Z</time>
   </trkpt>
   <trkpt lat="53.4094950" lon="-6.1366490">
    <ele>2.0</ele>
    <time>2025-08-29T13:37:50Z</time>
   </trkpt>
   <trkpt lat="53.4094220" lon="-6.1365330">
    <ele>2.0</ele>
    <time>2025-08-29T13:37:55Z</time>
   </trkpt>
   <trkpt lat="53.4093540" lon="-6.1364790">
    <ele>1.9</ele>
    <time>2025-08-29T13:38:01Z</time>
   </trkpt>
   <trkpt lat="53.4092830" lon="-6.1364660">
    <ele>1.9</ele>
    <time>2025-08-29T13:38:06Z</time>
   </trkpt>
   <trkpt lat="53.4091880" lon="-6.1364510">
    <ele>1.9</ele>
    <time>2025-08-29T13:38:12Z</time>
   </trkpt>
   <trkpt lat="53.4090960" lon="-6.1364180">
    <ele>1.9</ele>
    <time>2025-08-29T13:38:17Z</time>
   </trkpt>
   <trkpt lat="53.4090350" lon="-6.1364020">
    <ele>1.8</ele>
    <time>2025-08-29T13:38:22Z</time>
   </trkpt>
   <trkpt lat="53.4089540" lon="-6.1363810">
    <ele>1.8</ele>
    <time>2025-08-29T13:38:28Z</time>
   </trkpt>
   <trkpt lat="53.4088670" lon="-6.1363800">
    <ele>1.8</ele>
    <time>2025-08-29T13:38:33Z</time>
   </trkpt>
   <trkpt lat="53.4087810" lon="-6.1363550">
    <ele>1.7</ele>
    <time>2025-08-29T13:38:39Z</time>
   </trkpt>
   <trkpt lat="53.4087070" lon="-6.1363350">
    <ele>1.6</ele>
    <time>2025-08-29T13:38:44Z</time>
   </trkpt>
   <trkpt lat="53.4086300" lon="-6.1363130">
    <ele>1.5</ele>
    <time>2025-08-29T13:38:49Z</time>
   </trkpt>
   <trkpt lat="53.4085520" lon="-6.1362860">
    <ele>1.4</ele>
    <time>2025-08-29T13:38:54Z</time>
   </trkpt>
   <trkpt lat="53.4084850" lon="-6.1362430">
    <ele>1.3</ele>
    <time>2025-08-29T13:38:59Z</time>
   </trkpt>
   <trkpt lat="53.4083940" lon="-6.1362010">
    <ele>1.2</ele>
    <time>2025-08-29T13:39:05Z</time>
   </trkpt>
   <trkpt lat="53.4083090" lon="-6.1361480">
    <ele>1.0</ele>
    <time>2025-08-29T13:39:10Z</time>
   </trkpt>
   <trkpt lat="53.4082450" lon="-6.1361370">
    <ele>0.9</ele>
    <time>2025-08-29T13:39:16Z</time>
   </trkpt>
   <trkpt lat="53.4081680" lon="-6.1361230">
    <ele>0.8</ele>
    <time>2025-08-29T13:39:21Z</time>
   </trkpt>
   <trkpt lat="53.4080860" lon="-6.1361080">
    <ele>0.8</ele>
    <time>2025-08-29T13:39:26Z</time>
   </trkpt>
   <trkpt lat="53.4080140" lon="-6.1360880">
    <ele>0.8</ele>
    <time>2025-08-29T13:39:32Z</time>
   </trkpt>
   <trkpt lat="53.4079230" lon="-6.1360450">
    <ele>0.8</ele>
    <time>2025-08-29T13:39:37Z</time>
   </trkpt>
   <trkpt lat="53.4078430" lon="-6.1360060">
    <ele>0.8</ele>
    <time>2025-08-29T13:39:42Z</time>
   </trkpt>
   <trkpt lat="53.4077720" lon="-6.1359830">
    <ele>0.8</ele>
    <time>2025-08-29T13:39:48Z</time>
   </trkpt>
   <trkpt lat="53.4076950" lon="-6.1359530">
    <ele>0.8</ele>
    <time>2025-08-29T13:39:53Z</time>
   </trkpt>
   <trkpt lat="53.4076330" lon="-6.1359410">
    <ele>0.9</ele>
    <time>2025-08-29T13:39:58Z</time>
   </trkpt>
   <trkpt lat="53.4075590" lon="-6.1358770">
    <ele>0.9</ele>
    <time>2025-08-29T13:40:04Z</time>
   </trkpt>
   <trkpt lat="53.4074730" lon="-6.1358330">
    <ele>1.0</ele>
    <time>2025-08-29T13:40:09Z</time>
   </trkpt>
   <trkpt lat="53.4074010" lon="-6.1357940">
    <ele>1.1</ele>
    <time>2025-08-29T13:40:14Z</time>
   </trkpt>
   <trkpt lat="53.4073210" lon="-6.1357270">
    <ele>1.2</ele>
    <time>2025-08-29T13:40:20Z</time>
   </trkpt>
   <trkpt lat="53.4072420" lon="-6.1356480">
    <ele>1.3</ele>
    <time>2025-08-29T13:40:25Z</time>
   </trkpt>
   <trkpt lat="53.4071790" lon="-6.1355720">
    <ele>1.5</ele>
    <time>2025-08-29T13:40:30Z</time>
   </trkpt>
   <trkpt lat="53.4071110" lon="-6.1355010">
    <ele>1.7</ele>
    <time>2025-08-29T13:40:36Z</time>
   </trkpt>
   <trkpt lat="53.4070290" lon="-6.1354440">
    <ele>1.8</ele>
    <time>2025-08-29T13:40:41Z</time>
   </trkpt>
   <trkpt lat="53.4069680" lon="-6.1353950">
    <ele>2.0</ele>
    <time>2025-08-29T13:40:47Z</time>
   </trkpt>
   <trkpt lat="53.4068920" lon="-6.1353540">
    <ele>2.1</ele>
    <time>2025-08-29T13:40:52Z</time>
   </trkpt>
   <trkpt lat="53.4068060" lon="-6.1352610">
    <ele>2.2</ele>
    <time>2025-08-29T13:40:57Z</time>
   </trkpt>
   <trkpt lat="53.4067320" lon="-6.1352130">
    <ele>2.2</ele>
    <time>2025-08-29T13:41:02Z</time>
   </trkpt>
   <trkpt lat="53.4066660" lon="-6.1351480">
    <ele>2.2</ele>
    <time>2025-08-29T13:41:08Z</time>
   </trkpt>
   <trkpt lat="53.4066030" lon="-6.1350590">
    <ele>2.2</ele>
    <time>2025-08-29T13:41:13Z</time>
   </trkpt>
   <trkpt lat="53.4065250" lon="-6.1350170">
    <ele>2.1</ele>
    <time>2025-08-29T13:41:18Z</time>
   </trkpt>
   <trkpt lat="53.4064550" lon="-6.1349650">
    <ele>2.0</ele>
    <time>2025-08-29T13:41:24Z</time>
   </trkpt>
   <trkpt lat="53.4063810" lon="-6.1349140">
    <ele>1.9</ele>
    <time>2025-08-29T13:41:29Z</time>
   </trkpt>
   <trkpt lat="53.4063030" lon="-6.1348480">
    <ele>1.8</ele>
    <time>2025-08-29T13:41:34Z</time>
   </trkpt>
   <trkpt lat="53.4062420" lon="-6.1348110">
    <ele>1.6</ele>
    <time>2025-08-29T13:41:40Z</time>
   </trkpt>
   <trkpt lat="53.4061830" lon="-6.1347600">
    <ele>1.5</ele>
    <time>2025-08-29T13:41:45Z</time>
   </trkpt>
   <trkpt lat="53.4061040" lon="-6.1346930">
    <ele>1.5</ele>
    <time>2025-08-29T13:41:50Z</time>
   </trkpt>
   <trkpt lat="53.4060220" lon="-6.1346320">
    <ele>1.5</ele>
    <time>2025-08-29T13:41:56Z</time>
   </trkpt>
   <trkpt lat="53.4059710" lon="-6.1345760">
    <ele>1.5</ele>
    <time>2025-08-29T13:42:01Z</time>
   </trkpt>
   <trkpt lat="53.4058910" lon="-6.1345120">
    <ele>1.5</ele>
    <time>2025-08-29T13:42:06Z</time>
   </trkpt>
   <trkpt lat="53.4058270" lon="-6.1344370">
    <ele>1.6</ele>
    <time>2025-08-29T13:42:12Z</time>
   </trkpt>
   <trkpt lat="53.4057660" lon="-6.1343710">
    <ele>1.7</ele>
    <time>2025-08-29T13:42:17Z</time>
   </trkpt>
   <trkpt lat="53.4056890" lon="-6.1342840">
    <ele>1.8</ele>
    <time>2025-08-29T13:42:22Z</time>
   </trkpt>
   <trkpt lat="53.4056240" lon="-6.1342290">
    <ele>1.9</ele>
    <time>2025-08-29T13:42:28Z</time>
   </trkpt>
   <trkpt lat="53.4055590" lon="-6.1341440">
    <ele>2.0</ele>
    <time>2025-08-29T13:42:33Z</time>
   </trkpt>
   <trkpt lat="53.4054960" lon="-6.1340600">
    <ele>2.0</ele>
    <time>2025-08-29T13:42:38Z</time>
   </trkpt>
   <trkpt lat="53.4054580" lon="-6.1340020">
    <ele>2.1</ele>
    <time>2025-08-29T13:42:43Z</time>
   </trkpt>
   <trkpt lat="53.4053950" lon="-6.1339220">
    <ele>2.1</ele>
    <time>2025-08-29T13:42:48Z</time>
   </trkpt>
   <trkpt lat="53.4052990" lon="-6.1338650">
    <ele>2.0</ele>
    <time>2025-08-29T13:42:54Z</time>
   </trkpt>
   <trkpt lat="53.4052210" lon="-6.1338380">
    <ele>2.0</ele>
    <time>2025-08-29T13:42:59Z</time>
   </trkpt>
   <trkpt lat="53.4051510" lon="-6.1337620">
    <ele>1.8</ele>
    <time>2025-08-29T13:43:04Z</time>
   </trkpt>
   <trkpt lat="53.4050850" lon="-6.1337150">
    <ele>1.7</ele>
    <time>2025-08-29T13:43:10Z</time>
   </trkpt>
   <trkpt lat="53.4050060" lon="-6.1336640">
    <ele>1.6</ele>
    <time>2025-08-29T13:43:15Z</time>
   </trkpt>
   <trkpt lat="53.4049250" lon="-6.1336180">
    <ele>1.4</ele>
    <time>2025-08-29T13:43:21Z</time>
   </trkpt>
   <trkpt lat="53.4048600" lon="-6.1335590">
    <ele>1.3</ele>
    <time>2025-08-29T13:43:26Z</time>
   </trkpt>
   <trkpt lat="53.4047940" lon="-6.1334890">
    <ele>1.1</ele>
    <time>2025-08-29T13:43:32Z</time>
   </trkpt>
   <trkpt lat="53.4047250" lon="-6.1334240">
    <ele>0.9</ele>
    <time>2025-08-29T13:43:37Z</time>
   </trkpt>
   <trkpt lat="53.4046530" lon="-6.1333740">
    <ele>0.7</ele>
    <time>2025-08-29T13:43:42Z</time>
   </trkpt>
   <trkpt lat="53.4045760" lon="-6.1333340">
    <ele>0.5</ele>
    <time>2025-08-29T13:43:48Z</time>
   </trkpt>
   <trkpt lat="53.4045110" lon="-6.1332800">
    <ele>0.3</ele>
    <time>2025-08-29T13:43:53Z</time>
   </trkpt>
   <trkpt lat="53.4044500" lon="-6.1332350">
    <ele>0.3</ele>
    <time>2025-08-29T13:43:58Z</time>
   </trkpt>
   <trkpt lat="53.4043540" lon="-6.1331330">
    <ele>0.2</ele>
    <time>2025-08-29T13:44:04Z</time>
   </trkpt>
   <trkpt lat="53.4042680" lon="-6.1330340">
    <ele>0.3</ele>
    <time>2025-08-29T13:44:10Z</time>
   </trkpt>
   <trkpt lat="53.4041970" lon="-6.1329660">
    <ele>0.5</ele>
    <time>2025-08-29T13:44:15Z</time>
   </trkpt>
   <trkpt lat="53.4041350" lon="-6.1329250">
    <ele>0.7</ele>
    <time>2025-08-29T13:44:21Z</time>
   </trkpt>
   <trkpt lat="53.4040710" lon="-6.1328640">
    <ele>0.9</ele>
    <time>2025-08-29T13:44:26Z</time>
   </trkpt>
   <trkpt lat="53.4040010" lon="-6.1327910">
    <ele>1.2</ele>
    <time>2025-08-29T13:44:31Z</time>
   </trkpt>
   <trkpt lat="53.4039330" lon="-6.1327110">
    <ele>1.5</ele>
    <time>2025-08-29T13:44:37Z</time>
   </trkpt>
   <trkpt lat="53.4038680" lon="-6.1326580">
    <ele>1.9</ele>
    <time>2025-08-29T13:44:42Z</time>
   </trkpt>
   <trkpt lat="53.4038150" lon="-6.1326320">
    <ele>2.2</ele>
    <time>2025-08-29T13:44:47Z</time>
   </trkpt>
   <trkpt lat="53.4037400" lon="-6.1325800">
    <ele>2.3</ele>
    <time>2025-08-29T13:44:52Z</time>
   </trkpt>
   <trkpt lat="53.4036650" lon="-6.1325190">
    <ele>2.5</ele>
    <time>2025-08-29T13:44:57Z</time>
   </trkpt>
   <trkpt lat="53.4035760" lon="-6.1324450">
    <ele>2.7</ele>
    <time>2025-08-29T13:45:03Z</time>
   </trkpt>
   <trkpt lat="53.4035050" lon="-6.1323840">
    <ele>2.8</ele>
    <time>2025-08-29T13:45:08Z</time>
   </trkpt>
   <trkpt lat="53.4034530" lon="-6.1323210">
    <ele>2.8</ele>
    <time>2025-08-29T13:45:13Z</time>
   </trkpt>
   <trkpt lat="53.4033760" lon="-6.1322710">
    <ele>2.7</ele>
    <time>2025-08-29T13:45:19Z</time>
   </trkpt>
   <trkpt lat="53.4033130" lon="-6.1322190">
    <ele>2.6</ele>
    <time>2025-08-29T13:45:24Z</time>
   </trkpt>
   <trkpt lat="53.4032310" lon="-6.1321890">
    <ele>2.5</ele>
    <time>2025-08-29T13:45:29Z</time>
   </trkpt>
   <trkpt lat="53.4031700" lon="-6.1321360">
    <ele>2.4</ele>
    <time>2025-08-29T13:45:35Z</time>
   </trkpt>
   <trkpt lat="53.4031000" lon="-6.1320550">
    <ele>2.3</ele>
    <time>2025-08-29T13:45:40Z</time>
   </trkpt>
   <trkpt lat="53.4030470" lon="-6.1319500">
    <ele>2.1</ele>
    <time>2025-08-29T13:45:46Z</time>
   </trkpt>
   <trkpt lat="53.4029730" lon="-6.1318880">
    <ele>2.0</ele>
    <time>2025-08-29T13:45:51Z</time>
   </trkpt>
   <trkpt lat="53.4029100" lon="-6.1318270">
    <ele>1.9</ele>
    <time>2025-08-29T13:45:56Z</time>
   </trkpt>
   <trkpt lat="53.4028580" lon="-6.1317330">
    <ele>1.8</ele>
    <time>2025-08-29T13:46:02Z</time>
   </trkpt>
   <trkpt lat="53.4028640" lon="-6.1316100">
    <ele>1.7</ele>
    <time>2025-08-29T13:46:07Z</time>
   </trkpt>
   <trkpt lat="53.4028530" lon="-6.1314620">
    <ele>1.5</ele>
    <time>2025-08-29T13:46:13Z</time>
   </trkpt>
   <trkpt lat="53.4028360" lon="-6.1313540">
    <ele>1.3</ele>
    <time>2025-08-29T13:46:18Z</time>
   </trkpt>
   <trkpt lat="53.4028180" lon="-6.1312600">
    <ele>1.1</ele>
    <time>2025-08-29T13:46:25Z</time>
   </trkpt>
   <trkpt lat="53.4027410" lon="-6.1311810">
    <ele>0.9</ele>
    <time>2025-08-29T13:46:31Z</time>
   </trkpt>
   <trkpt lat="53.4026710" lon="-6.1311340">
    <ele>0.7</ele>
    <time>2025-08-29T13:46:36Z</time>
   </trkpt>
   <trkpt lat="53.4025900" lon="-6.1310950">
    <ele>0.6</ele>
    <time>2025-08-29T13:46:41Z</time>
   </trkpt>
   <trkpt lat="53.4025290" lon="-6.1310560">
    <ele>0.5</ele>
    <time>2025-08-29T13:46:47Z</time>
   </trkpt>
   <trkpt lat="53.4024510" lon="-6.1310040">
    <ele>0.5</ele>
    <time>2025-08-29T13:46:52Z</time>
   </trkpt>
   <trkpt lat="53.4023810" lon="-6.1309250">
    <ele>0.3</ele>
    <time>2025-08-29T13:46:58Z</time>
   </trkpt>
   <trkpt lat="53.4023080" lon="-6.1308580">
    <ele>0.3</ele>
    <time>2025-08-29T13:47:03Z</time>
   </trkpt>
   <trkpt lat="53.4022490" lon="-6.1308070">
    <ele>0.3</ele>
    <time>2025-08-29T13:47:09Z</time>
   </trkpt>
   <trkpt lat="53.4021810" lon="-6.1307400">
    <ele>0.3</ele>
    <time>2025-08-29T13:47:14Z</time>
   </trkpt>
   <trkpt lat="53.4021000" lon="-6.1306750">
    <ele>0.3</ele>
    <time>2025-08-29T13:47:19Z</time>
   </trkpt>
   <trkpt lat="53.4020300" lon="-6.1306300">
    <ele>0.3</ele>
    <time>2025-08-29T13:47:25Z</time>
   </trkpt>
   <trkpt lat="53.4019590" lon="-6.1305710">
    <ele>0.4</ele>
    <time>2025-08-29T13:47:30Z</time>
   </trkpt>
   <trkpt lat="53.4018950" lon="-6.1305120">
    <ele>0.4</ele>
    <time>2025-08-29T13:47:35Z</time>
   </trkpt>
   <trkpt lat="53.4018070" lon="-6.1304570">
    <ele>0.4</ele>
    <time>2025-08-29T13:47:41Z</time>
   </trkpt>
   <trkpt lat="53.4017560" lon="-6.1303690">
    <ele>0.4</ele>
    <time>2025-08-29T13:47:47Z</time>
   </trkpt>
   <trkpt lat="53.4016860" lon="-6.1302770">
    <ele>0.4</ele>
    <time>2025-08-29T13:47:52Z</time>
   </trkpt>
   <trkpt lat="53.4016030" lon="-6.1302290">
    <ele>0.3</ele>
    <time>2025-08-29T13:47:57Z</time>
   </trkpt>
   <trkpt lat="53.4015410" lon="-6.1301660">
    <ele>0.3</ele>
    <time>2025-08-29T13:48:03Z</time>
   </trkpt>
   <trkpt lat="53.4014680" lon="-6.1301080">
    <ele>0.3</ele>
    <time>2025-08-29T13:48:08Z</time>
   </trkpt>
   <trkpt lat="53.4014100" lon="-6.1300610">
    <ele>0.3</ele>
    <time>2025-08-29T13:48:13Z</time>
   </trkpt>
   <trkpt lat="53.4013360" lon="-6.1299960">
    <ele>0.3</ele>
    <time>2025-08-29T13:48:19Z</time>
   </trkpt>
   <trkpt lat="53.4012610" lon="-6.1299390">
    <ele>0.3</ele>
    <time>2025-08-29T13:48:25Z</time>
   </trkpt>
   <trkpt lat="53.4011870" lon="-6.1298960">
    <ele>0.4</ele>
    <time>2025-08-29T13:48:30Z</time>
   </trkpt>
   <trkpt lat="53.4011100" lon="-6.1298270">
    <ele>0.4</ele>
    <time>2025-08-29T13:48:35Z</time>
   </trkpt>
   <trkpt lat="53.4010470" lon="-6.1297640">
    <ele>0.5</ele>
    <time>2025-08-29T13:48:41Z</time>
   </trkpt>
   <trkpt lat="53.4009860" lon="-6.1296950">
    <ele>0.5</ele>
    <time>2025-08-29T13:48:46Z</time>
   </trkpt>
   <trkpt lat="53.4009060" lon="-6.1296280">
    <ele>0.5</ele>
    <time>2025-08-29T13:48:51Z</time>
   </trkpt>
   <trkpt lat="53.4008330" lon="-6.1295480">
    <ele>0.5</ele>
    <time>2025-08-29T13:48:57Z</time>
   </trkpt>
   <trkpt lat="53.4007730" lon="-6.1294750">
    <ele>0.4</ele>
    <time>2025-08-29T13:49:02Z</time>
   </trkpt>
   <trkpt lat="53.4007000" lon="-6.1294140">
    <ele>0.4</ele>
    <time>2025-08-29T13:49:08Z</time>
   </trkpt>
   <trkpt lat="53.4006470" lon="-6.1293380">
    <ele>0.5</ele>
    <time>2025-08-29T13:49:13Z</time>
   </trkpt>
   <trkpt lat="53.4005750" lon="-6.1292570">
    <ele>0.5</ele>
    <time>2025-08-29T13:49:18Z</time>
   </trkpt>
   <trkpt lat="53.4005250" lon="-6.1291720">
    <ele>0.6</ele>
    <time>2025-08-29T13:49:24Z</time>
   </trkpt>
   <trkpt lat="53.4004560" lon="-6.1290830">
    <ele>0.6</ele>
    <time>2025-08-29T13:49:29Z</time>
   </trkpt>
   <trkpt lat="53.4003910" lon="-6.1289830">
    <ele>0.8</ele>
    <time>2025-08-29T13:49:35Z</time>
   </trkpt>
   <trkpt lat="53.4003350" lon="-6.1289120">
    <ele>0.9</ele>
    <time>2025-08-29T13:49:40Z</time>
   </trkpt>
   <trkpt lat="53.4002720" lon="-6.1288060">
    <ele>1.1</ele>
    <time>2025-08-29T13:49:45Z</time>
   </trkpt>
   <trkpt lat="53.4002220" lon="-6.1287310">
    <ele>1.3</ele>
    <time>2025-08-29T13:49:51Z</time>
   </trkpt>
   <trkpt lat="53.4001670" lon="-6.1286470">
    <ele>1.4</ele>
    <time>2025-08-29T13:49:56Z</time>
   </trkpt>
   <trkpt lat="53.4000970" lon="-6.1285640">
    <ele>1.6</ele>
    <time>2025-08-29T13:50:01Z</time>
   </trkpt>
   <trkpt lat="53.4000320" lon="-6.1285250">
    <ele>1.8</ele>
    <time>2025-08-29T13:50:06Z</time>
   </trkpt>
   <trkpt lat="53.3999580" lon="-6.1284000">
    <ele>1.9</ele>
    <time>2025-08-29T13:50:12Z</time>
   </trkpt>
   <trkpt lat="53.3998990" lon="-6.1283110">
    <ele>2.0</ele>
    <time>2025-08-29T13:50:17Z</time>
   </trkpt>
   <trkpt lat="53.3998800" lon="-6.1282160">
    <ele>2.1</ele>
    <time>2025-08-29T13:50:23Z</time>
   </trkpt>
   <trkpt lat="53.3998140" lon="-6.1281250">
    <ele>2.2</ele>
    <time>2025-08-29T13:50:28Z</time>
   </trkpt>
   <trkpt lat="53.3997230" lon="-6.1280640">
    <ele>2.3</ele>
    <time>2025-08-29T13:50:33Z</time>
   </trkpt>
   <trkpt lat="53.3996630" lon="-6.1280080">
    <ele>2.4</ele>
    <time>2025-08-29T13:50:38Z</time>
   </trkpt>
   <trkpt lat="53.3995890" lon="-6.1279200">
    <ele>2.4</ele>
    <time>2025-08-29T13:50:44Z</time>
   </trkpt>
   <trkpt lat="53.3995170" lon="-6.1278340">
    <ele>2.5</ele>
    <time>2025-08-29T13:50:50Z</time>
   </trkpt>
   <trkpt lat="53.3994460" lon="-6.1277610">
    <ele>2.6</ele>
    <time>2025-08-29T13:50:55Z</time>
   </trkpt>
   <trkpt lat="53.3993940" lon="-6.1276640">
    <ele>2.7</ele>
    <time>2025-08-29T13:51:00Z</time>
   </trkpt>
   <trkpt lat="53.3993310" lon="-6.1276370">
    <ele>2.7</ele>
    <time>2025-08-29T13:51:06Z</time>
   </trkpt>
   <trkpt lat="53.3992510" lon="-6.1276010">
    <ele>2.8</ele>
    <time>2025-08-29T13:51:11Z</time>
   </trkpt>
   <trkpt lat="53.3991690" lon="-6.1275160">
    <ele>2.9</ele>
    <time>2025-08-29T13:51:17Z</time>
   </trkpt>
   <trkpt lat="53.3991130" lon="-6.1274220">
    <ele>3.0</ele>
    <time>2025-08-29T13:51:22Z</time>
   </trkpt>
   <trkpt lat="53.3990390" lon="-6.1273060">
    <ele>3.0</ele>
    <time>2025-08-29T13:51:27Z</time>
   </trkpt>
   <trkpt lat="53.3989850" lon="-6.1272680">
    <ele>3.1</ele>
    <time>2025-08-29T13:51:32Z</time>
   </trkpt>
   <trkpt lat="53.3989140" lon="-6.1272070">
    <ele>3.2</ele>
    <time>2025-08-29T13:51:38Z</time>
   </trkpt>
   <trkpt lat="53.3988520" lon="-6.1271170">
    <ele>3.2</ele>
    <time>2025-08-29T13:51:44Z</time>
   </trkpt>
   <trkpt lat="53.3988190" lon="-6.1270520">
    <ele>3.2</ele>
    <time>2025-08-29T13:51:49Z</time>
   </trkpt>
   <trkpt lat="53.3987750" lon="-6.1270130">
    <ele>3.2</ele>
    <time>2025-08-29T13:51:57Z</time>
   </trkpt>
   <trkpt lat="53.3987270" lon="-6.1269030">
    <ele>3.2</ele>
    <time>2025-08-29T13:52:02Z</time>
   </trkpt>
   <trkpt lat="53.3986480" lon="-6.1268420">
    <ele>3.1</ele>
    <time>2025-08-29T13:52:08Z</time>
   </trkpt>
   <trkpt lat="53.3985900" lon="-6.1267690">
    <ele>3.1</ele>
    <time>2025-08-29T13:52:13Z</time>
   </trkpt>
   <trkpt lat="53.3985530" lon="-6.1266910">
    <ele>3.0</ele>
    <time>2025-08-29T13:52:29Z</time>
   </trkpt>
   <trkpt lat="53.3984860" lon="-6.1265750">
    <ele>2.8</ele>
    <time>2025-08-29T13:52:35Z</time>
   </trkpt>
   <trkpt lat="53.3984240" lon="-6.1265000">
    <ele>2.7</ele>
    <time>2025-08-29T13:52:40Z</time>
   </trkpt>
   <trkpt lat="53.3983450" lon="-6.1264430">
    <ele>2.6</ele>
    <time>2025-08-29T13:52:45Z</time>
   </trkpt>
   <trkpt lat="53.3982930" lon="-6.1263800">
    <ele>2.4</ele>
    <time>2025-08-29T13:52:51Z</time>
   </trkpt>
   <trkpt lat="53.3982040" lon="-6.1263330">
    <ele>2.3</ele>
    <time>2025-08-29T13:52:56Z</time>
   </trkpt>
   <trkpt lat="53.3981220" lon="-6.1262890">
    <ele>2.2</ele>
    <time>2025-08-29T13:53:02Z</time>
   </trkpt>
   <trkpt lat="53.3980560" lon="-6.1262530">
    <ele>2.1</ele>
    <time>2025-08-29T13:53:07Z</time>
   </trkpt>
   <trkpt lat="53.3979810" lon="-6.1261860">
    <ele>2.0</ele>
    <time>2025-08-29T13:53:12Z</time>
   </trkpt>
   <trkpt lat="53.3979020" lon="-6.1261240">
    <ele>1.8</ele>
    <time>2025-08-29T13:53:18Z</time>
   </trkpt>
   <trkpt lat="53.3978300" lon="-6.1260700">
    <ele>1.6</ele>
    <time>2025-08-29T13:53:24Z</time>
   </trkpt>
   <trkpt lat="53.3977480" lon="-6.1260140">
    <ele>1.5</ele>
    <time>2025-08-29T13:53:29Z</time>
   </trkpt>
   <trkpt lat="53.3976770" lon="-6.1259640">
    <ele>1.3</ele>
    <time>2025-08-29T13:53:35Z</time>
   </trkpt>
   <trkpt lat="53.3975970" lon="-6.1259110">
    <ele>1.2</ele>
    <time>2025-08-29T13:53:40Z</time>
   </trkpt>
   <trkpt lat="53.3975170" lon="-6.1258480">
    <ele>1.1</ele>
    <time>2025-08-29T13:53:46Z</time>
   </trkpt>
   <trkpt lat="53.3974560" lon="-6.1258020">
    <ele>1.0</ele>
    <time>2025-08-29T13:53:51Z</time>
   </trkpt>
   <trkpt lat="53.3973770" lon="-6.1257480">
    <ele>1.0</ele>
    <time>2025-08-29T13:53:56Z</time>
   </trkpt>
   <trkpt lat="53.3973050" lon="-6.1257080">
    <ele>1.0</ele>
    <time>2025-08-29T13:54:02Z</time>
   </trkpt>
   <trkpt lat="53.3972350" lon="-6.1256700">
    <ele>1.0</ele>
    <time>2025-08-29T13:54:07Z</time>
   </trkpt>
   <trkpt lat="53.3971660" lon="-6.1256120">
    <ele>1.1</ele>
    <time>2025-08-29T13:54:13Z</time>
   </trkpt>
   <trkpt lat="53.3970930" lon="-6.1255710">
    <ele>1.1</ele>
    <time>2025-08-29T13:54:18Z</time>
   </trkpt>
   <trkpt lat="53.3970150" lon="-6.1255150">
    <ele>1.2</ele>
    <time>2025-08-29T13:54:23Z</time>
   </trkpt>
   <trkpt lat="53.3969410" lon="-6.1254550">
    <ele>1.2</ele>
    <time>2025-08-29T13:54:29Z</time>
   </trkpt>
   <trkpt lat="53.3968640" lon="-6.1254130">
    <ele>1.2</ele>
    <time>2025-08-29T13:54:34Z</time>
   </trkpt>
   <trkpt lat="53.3967970" lon="-6.1253490">
    <ele>1.2</ele>
    <time>2025-08-29T13:54:40Z</time>
   </trkpt>
   <trkpt lat="53.3967400" lon="-6.1252980">
    <ele>1.2</ele>
    <time>2025-08-29T13:54:45Z</time>
   </trkpt>
   <trkpt lat="53.3966540" lon="-6.1252530">
    <ele>1.3</ele>
    <time>2025-08-29T13:54:50Z</time>
   </trkpt>
   <trkpt lat="53.3965860" lon="-6.1251950">
    <ele>1.3</ele>
    <time>2025-08-29T13:54:56Z</time>
   </trkpt>
   <trkpt lat="53.3965130" lon="-6.1251320">
    <ele>1.3</ele>
    <time>2025-08-29T13:55:01Z</time>
   </trkpt>
   <trkpt lat="53.3964370" lon="-6.1250590">
    <ele>1.4</ele>
    <time>2025-08-29T13:55:07Z</time>
   </trkpt>
   <trkpt lat="53.3963680" lon="-6.1249840">
    <ele>1.5</ele>
    <time>2025-08-29T13:55:12Z</time>
   </trkpt>
   <trkpt lat="53.3962980" lon="-6.1249170">
    <ele>1.6</ele>
    <time>2025-08-29T13:55:17Z</time>
   </trkpt>
   <trkpt lat="53.3962340" lon="-6.1248610">
    <ele>1.7</ele>
    <time>2025-08-29T13:55:23Z</time>
   </trkpt>
   <trkpt lat="53.3961740" lon="-6.1247800">
    <ele>1.7</ele>
    <time>2025-08-29T13:55:28Z</time>
   </trkpt>
   <trkpt lat="53.3961190" lon="-6.1247080">
    <ele>1.7</ele>
    <time>2025-08-29T13:55:33Z</time>
   </trkpt>
   <trkpt lat="53.3960430" lon="-6.1246200">
    <ele>1.7</ele>
    <time>2025-08-29T13:55:39Z</time>
   </trkpt>
   <trkpt lat="53.3959750" lon="-6.1245470">
    <ele>1.7</ele>
    <time>2025-08-29T13:55:44Z</time>
   </trkpt>
   <trkpt lat="53.3959210" lon="-6.1244780">
    <ele>1.6</ele>
    <time>2025-08-29T13:55:50Z</time>
   </trkpt>
   <trkpt lat="53.3958520" lon="-6.1244000">
    <ele>1.6</ele>
    <time>2025-08-29T13:55:55Z</time>
   </trkpt>
   <trkpt lat="53.3957740" lon="-6.1242860">
    <ele>1.5</ele>
    <time>2025-08-29T13:56:01Z</time>
   </trkpt>
   <trkpt lat="53.3957210" lon="-6.1242240">
    <ele>1.4</ele>
    <time>2025-08-29T13:56:06Z</time>
   </trkpt>
   <trkpt lat="53.3956590" lon="-6.1241360">
    <ele>1.4</ele>
    <time>2025-08-29T13:56:11Z</time>
   </trkpt>
   <trkpt lat="53.3956030" lon="-6.1240720">
    <ele>1.4</ele>
    <time>2025-08-29T13:56:16Z</time>
   </trkpt>
   <trkpt lat="53.3955330" lon="-6.1239860">
    <ele>1.4</ele>
    <time>2025-08-29T13:56:22Z</time>
   </trkpt>
   <trkpt lat="53.3954600" lon="-6.1239000">
    <ele>1.4</ele>
    <time>2025-08-29T13:56:28Z</time>
   </trkpt>
   <trkpt lat="53.3954050" lon="-6.1238340">
    <ele>1.4</ele>
    <time>2025-08-29T13:56:33Z</time>
   </trkpt>
   <trkpt lat="53.3953410" lon="-6.1237430">
    <ele>1.3</ele>
    <time>2025-08-29T13:56:38Z</time>
   </trkpt>
   <trkpt lat="53.3952820" lon="-6.1236950">
    <ele>1.3</ele>
    <time>2025-08-29T13:56:44Z</time>
   </trkpt>
   <trkpt lat="53.3952110" lon="-6.1236000">
    <ele>1.3</ele>
    <time>2025-08-29T13:56:49Z</time>
   </trkpt>
   <trkpt lat="53.3951500" lon="-6.1235270">
    <ele>1.2</ele>
    <time>2025-08-29T13:56:54Z</time>
   </trkpt>
   <trkpt lat="53.3950890" lon="-6.1234400">
    <ele>1.2</ele>
    <time>2025-08-29T13:57:00Z</time>
   </trkpt>
   <trkpt lat="53.3950220" lon="-6.1233620">
    <ele>1.1</ele>
    <time>2025-08-29T13:57:05Z</time>
   </trkpt>
   <trkpt lat="53.3949580" lon="-6.1232870">
    <ele>1.0</ele>
    <time>2025-08-29T13:57:11Z</time>
   </trkpt>
   <trkpt lat="53.3949070" lon="-6.1232160">
    <ele>1.0</ele>
    <time>2025-08-29T13:57:16Z</time>
   </trkpt>
   <trkpt lat="53.3948430" lon="-6.1231140">
    <ele>1.0</ele>
    <time>2025-08-29T13:57:21Z</time>
   </trkpt>
   <trkpt lat="53.3947960" lon="-6.1230430">
    <ele>0.9</ele>
    <time>2025-08-29T13:57:26Z</time>
   </trkpt>
   <trkpt lat="53.3947250" lon="-6.1229450">
    <ele>0.9</ele>
    <time>2025-08-29T13:57:32Z</time>
   </trkpt>
   <trkpt lat="53.3946650" lon="-6.1228450">
    <ele>0.9</ele>
    <time>2025-08-29T13:57:38Z</time>
   </trkpt>
   <trkpt lat="53.3946190" lon="-6.1227680">
    <ele>0.8</ele>
    <time>2025-08-29T13:57:43Z</time>
   </trkpt>
   <trkpt lat="53.3945640" lon="-6.1226700">
    <ele>0.8</ele>
    <time>2025-08-29T13:57:48Z</time>
   </trkpt>
   <trkpt lat="53.3945130" lon="-6.1225930">
    <ele>0.6</ele>
    <time>2025-08-29T13:57:53Z</time>
   </trkpt>
   <trkpt lat="53.3944530" lon="-6.1224820">
    <ele>0.6</ele>
    <time>2025-08-29T13:57:59Z</time>
   </trkpt>
   <trkpt lat="53.3944020" lon="-6.1223720">
    <ele>0.5</ele>
    <time>2025-08-29T13:58:05Z</time>
   </trkpt>
   <trkpt lat="53.3943600" lon="-6.1222800">
    <ele>0.4</ele>
    <time>2025-08-29T13:58:10Z</time>
   </trkpt>
   <trkpt lat="53.3943090" lon="-6.1221810">
    <ele>0.3</ele>
    <time>2025-08-29T13:58:15Z</time>
   </trkpt>
   <trkpt lat="53.3942450" lon="-6.1220800">
    <ele>0.3</ele>
    <time>2025-08-29T13:58:21Z</time>
   </trkpt>
   <trkpt lat="53.3942000" lon="-6.1219900">
    <ele>0.2</ele>
    <time>2025-08-29T13:58:26Z</time>
   </trkpt>
   <trkpt lat="53.3941360" lon="-6.1218750">
    <ele>0.2</ele>
    <time>2025-08-29T13:58:31Z</time>
   </trkpt>
   <trkpt lat="53.3940870" lon="-6.1217600">
    <ele>0.2</ele>
    <time>2025-08-29T13:58:37Z</time>
   </trkpt>
   <trkpt lat="53.3940470" lon="-6.1216430">
    <ele>0.3</ele>
    <time>2025-08-29T13:58:42Z</time>
   </trkpt>
   <trkpt lat="53.3939910" lon="-6.1215340">
    <ele>0.3</ele>
    <time>2025-08-29T13:58:48Z</time>
   </trkpt>
   <trkpt lat="53.3939540" lon="-6.1214470">
    <ele>0.4</ele>
    <time>2025-08-29T13:58:53Z</time>
   </trkpt>
   <trkpt lat="53.3938970" lon="-6.1213490">
    <ele>0.5</ele>
    <time>2025-08-29T13:58:58Z</time>
   </trkpt>
   <trkpt lat="53.3938700" lon="-6.1212430">
    <ele>0.6</ele>
    <time>2025-08-29T13:59:04Z</time>
   </trkpt>
   <trkpt lat="53.3938170" lon="-6.1211380">
    <ele>0.7</ele>
    <time>2025-08-29T13:59:09Z</time>
   </trkpt>
   <trkpt lat="53.3937610" lon="-6.1210580">
    <ele>0.8</ele>
    <time>2025-08-29T13:59:14Z</time>
   </trkpt>
   <trkpt lat="53.3936940" lon="-6.1209540">
    <ele>0.9</ele>
    <time>2025-08-29T13:59:20Z</time>
   </trkpt>
   <trkpt lat="53.3936520" lon="-6.1208480">
    <ele>1.1</ele>
    <time>2025-08-29T13:59:26Z</time>
   </trkpt>
   <trkpt lat="53.3936200" lon="-6.1207310">
    <ele>1.1</ele>
    <time>2025-08-29T13:59:31Z</time>
   </trkpt>
   <trkpt lat="53.3935660" lon="-6.1206240">
    <ele>1.1</ele>
    <time>2025-08-29T13:59:36Z</time>
   </trkpt>
   <trkpt lat="53.3935450" lon="-6.1205230">
    <ele>1.1</ele>
    <time>2025-08-29T13:59:41Z</time>
   </trkpt>
   <trkpt lat="53.3934990" lon="-6.1203950">
    <ele>1.1</ele>
    <time>2025-08-29T13:59:47Z</time>
   </trkpt>
   <trkpt lat="53.3934690" lon="-6.1203240">
    <ele>1.1</ele>
    <time>2025-08-29T14:00:09Z</time>
   </trkpt>
   <trkpt lat="53.3934080" lon="-6.1202050">
    <ele>1.1</ele>
    <time>2025-08-29T14:00:14Z</time>
   </trkpt>
   <trkpt lat="53.3933580" lon="-6.1200790">
    <ele>1.1</ele>
    <time>2025-08-29T14:00:19Z</time>
   </trkpt>
   <trkpt lat="53.3933250" lon="-6.1199880">
    <ele>1.0</ele>
    <time>2025-08-29T14:00:25Z</time>
   </trkpt>
   <trkpt lat="53.3932670" lon="-6.1198530">
    <ele>1.0</ele>
    <time>2025-08-29T14:00:30Z</time>
   </trkpt>
   <trkpt lat="53.3932210" lon="-6.1197420">
    <ele>1.0</ele>
    <time>2025-08-29T14:00:35Z</time>
   </trkpt>
   <trkpt lat="53.3931730" lon="-6.1196350">
    <ele>0.9</ele>
    <time>2025-08-29T14:00:41Z</time>
   </trkpt>
   <trkpt lat="53.3931160" lon="-6.1195170">
    <ele>0.9</ele>
    <time>2025-08-29T14:00:46Z</time>
   </trkpt>
   <trkpt lat="53.3930640" lon="-6.1194090">
    <ele>1.0</ele>
    <time>2025-08-29T14:00:52Z</time>
   </trkpt>
   <trkpt lat="53.3930270" lon="-6.1193160">
    <ele>1.0</ele>
    <time>2025-08-29T14:00:57Z</time>
   </trkpt>
   <trkpt lat="53.3929730" lon="-6.1191900">
    <ele>1.1</ele>
    <time>2025-08-29T14:01:02Z</time>
   </trkpt>
   <trkpt lat="53.3929290" lon="-6.1190890">
    <ele>1.2</ele>
    <time>2025-08-29T14:01:07Z</time>
   </trkpt>
   <trkpt lat="53.3928850" lon="-6.1189760">
    <ele>1.4</ele>
    <time>2025-08-29T14:01:13Z</time>
   </trkpt>
   <trkpt lat="53.3928260" lon="-6.1188690">
    <ele>1.5</ele>
    <time>2025-08-29T14:01:18Z</time>
   </trkpt>
   <trkpt lat="53.3927870" lon="-6.1187700">
    <ele>1.6</ele>
    <time>2025-08-29T14:01:24Z</time>
   </trkpt>
   <trkpt lat="53.3927020" lon="-6.1187030">
    <ele>1.8</ele>
    <time>2025-08-29T14:01:30Z</time>
   </trkpt>
   <trkpt lat="53.3926700" lon="-6.1186360">
    <ele>1.9</ele>
    <time>2025-08-29T14:01:35Z</time>
   </trkpt>
   <trkpt lat="53.3926370" lon="-6.1185180">
    <ele>1.9</ele>
    <time>2025-08-29T14:01:40Z</time>
   </trkpt>
   <trkpt lat="53.3925820" lon="-6.1184280">
    <ele>1.9</ele>
    <time>2025-08-29T14:01:46Z</time>
   </trkpt>
   <trkpt lat="53.3925380" lon="-6.1183240">
    <ele>1.9</ele>
    <time>2025-08-29T14:01:51Z</time>
   </trkpt>
   <trkpt lat="53.3924970" lon="-6.1181960">
    <ele>1.9</ele>
    <time>2025-08-29T14:01:56Z</time>
   </trkpt>
   <trkpt lat="53.3924750" lon="-6.1180910">
    <ele>1.8</ele>
    <time>2025-08-29T14:02:01Z</time>
   </trkpt>
   <trkpt lat="53.3923970" lon="-6.1179950">
    <ele>1.8</ele>
    <time>2025-08-29T14:02:07Z</time>
   </trkpt>
   <trkpt lat="53.3923510" lon="-6.1178660">
    <ele>1.8</ele>
    <time>2025-08-29T14:02:12Z</time>
   </trkpt>
   <trkpt lat="53.3923090" lon="-6.1177620">
    <ele>1.8</ele>
    <time>2025-08-29T14:02:18Z</time>
   </trkpt>
   <trkpt lat="53.3922650" lon="-6.1176580">
    <ele>1.9</ele>
    <time>2025-08-29T14:02:23Z</time>
   </trkpt>
   <trkpt lat="53.3922260" lon="-6.1175610">
    <ele>1.9</ele>
    <time>2025-08-29T14:02:28Z</time>
   </trkpt>
   <trkpt lat="53.3921910" lon="-6.1174290">
    <ele>2.0</ele>
    <time>2025-08-29T14:02:34Z</time>
   </trkpt>
   <trkpt lat="53.3921350" lon="-6.1173320">
    <ele>2.1</ele>
    <time>2025-08-29T14:02:39Z</time>
   </trkpt>
   <trkpt lat="53.3921090" lon="-6.1172380">
    <ele>2.2</ele>
    <time>2025-08-29T14:02:44Z</time>
   </trkpt>
   <trkpt lat="53.3921530" lon="-6.1172460">
    <ele>2.2</ele>
    <time>2025-08-29T14:03:05Z</time>
   </trkpt>
   <trkpt lat="53.3921330" lon="-6.1170960">
    <ele>2.2</ele>
    <time>2025-08-29T14:03:11Z</time>
   </trkpt>
   <trkpt lat="53.3921460" lon="-6.1169500">
    <ele>2.0</ele>
    <time>2025-08-29T14:03:16Z</time>
   </trkpt>
   <trkpt lat="53.3921500" lon="-6.1168200">
    <ele>1.9</ele>
    <time>2025-08-29T14:03:21Z</time>
   </trkpt>
   <trkpt lat="53.3921420" lon="-6.1166880">
    <ele>1.8</ele>
    <time>2025-08-29T14:03:27Z</time>
   </trkpt>
   <trkpt lat="53.3921360" lon="-6.1166040">
    <ele>1.8</ele>
    <time>2025-08-29T14:03:34Z</time>
   </trkpt>
   <trkpt lat="53.3921240" lon="-6.1165020">
    <ele>1.7</ele>
    <time>2025-08-29T14:03:39Z</time>
   </trkpt>
   <trkpt lat="53.3920820" lon="-6.1164660">
    <ele>2.0</ele>
    <time>2025-08-29T14:04:03Z</time>
   </trkpt>
   <trkpt lat="53.3919950" lon="-6.1164150">
    <ele>2.2</ele>
    <time>2025-08-29T14:04:09Z</time>
   </trkpt>
   <trkpt lat="53.3919970" lon="-6.1163350">
    <ele>2.4</ele>
    <time>2025-08-29T14:04:15Z</time>
   </trkpt>
   <trkpt lat="53.3920050" lon="-6.1162490">
    <ele>2.6</ele>
    <time>2025-08-29T14:04:28Z</time>
   </trkpt>
   <trkpt lat="53.3920250" lon="-6.1160790">
    <ele>2.5</ele>
    <time>2025-08-29T14:04:33Z</time>
   </trkpt>
   <trkpt lat="53.3920250" lon="-6.1159830">
    <ele>2.4</ele>
    <time>2025-08-29T14:04:39Z</time>
   </trkpt>
   <trkpt lat="53.3919790" lon="-6.1159790">
    <ele>2.6</ele>
    <time>2025-08-29T14:04:57Z</time>
   </trkpt>
   <trkpt lat="53.3919650" lon="-6.1158990">
    <ele>2.8</ele>
    <time>2025-08-29T14:05:10Z</time>
   </trkpt>
   <trkpt lat="53.3919250" lon="-6.1159390">
    <ele>2.9</ele>
    <time>2025-08-29T14:05:22Z</time>
   </trkpt>
   <trkpt lat="53.3919120" lon="-6.1160730">
    <ele>3.0</ele>
    <time>2025-08-29T14:05:28Z</time>
   </trkpt>
   <trkpt lat="53.3919110" lon="-6.1162050">
    <ele>3.0</ele>
    <time>2025-08-29T14:05:33Z</time>
   </trkpt>
   <trkpt lat="53.3919740" lon="-6.1162430">
    <ele>2.9</ele>
    <time>2025-08-29T14:05:39Z</time>
   </trkpt>
   <trkpt lat="53.3919840" lon="-6.1161620">
    <ele>2.7</ele>
    <time>2025-08-29T14:07:40Z</time>
   </trkpt>
   <trkpt lat="53.3919410" lon="-6.1161860">
    <ele>2.7</ele>
    <time>2025-08-29T14:08:16Z</time>
   </trkpt>
   <trkpt lat="53.3919500" lon="-6.1163000">
    <ele>2.8</ele>
    <time>2025-08-29T14:08:22Z</time>
   </trkpt>
  </trkseg>
 </trk>
</gpx>
